Observation data for McCamey on 02/23/2019      Previous  Date  Next       Current Mesonet Observations  Soil Data  Daily Summary Page  Observations in Plain Language
KMC4 230600Z 27021KT 15/03 A2983 RMK A01 T01510029  RH  044%=      5-min Rain = 0
KMC4 230601Z 27019G24KT 15/03 A2983 RMK A01 T01500025  RH  043%=      5-min Rain = 0
KMC4 230602Z 27019KT 15/02 A2983 RMK A01 T01480021  RH  042%=      5-min Rain = 0
KMC4 230603Z 27018G24KT 15/02 A2983 RMK A01 T01470018  RH  042%=      5-min Rain = 0
KMC4 230604Z 27019KT 15/02 A2983 RMK A01 T01460015  RH  041%=      5-min Rain = 0
KMC4 230605Z 27018G25KT 15/01 A2983 RMK A01 T01450014  RH  041%=      5-min Rain = 0
KMC4 230606Z 27017G22KT 15/01 A2984 RMK A01 T01450014  RH  041%=      5-min Rain = 0
KMC4 230607Z 27019G24KT 14/01 A2984 RMK A01 T01440013  RH  041%=      5-min Rain = 0
KMC4 230608Z 27017KT 14/01 A2984 RMK A01 T01440013  RH  041%=      5-min Rain = 0
KMC4 230609Z 27017KT 14/01 A2984 RMK A01 T01430012  RH  041%=      5-min Rain = 0
KMC4 230610Z 28017KT 14/01 A2984 RMK A01 T01430012  RH  041%=      5-min Rain = 0
KMC4 230611Z 28015G20KT 14/01 A2984 RMK A01 T01420012  RH  041%=      5-min Rain = 0
KMC4 230612Z 28014KT 14/01 A2984 RMK A01 T01420012  RH  041%=      5-min Rain = 0
KMC4 230613Z 28014G19KT 14/01 A2985 RMK A01 T01410012  RH  041%=      5-min Rain = 0
KMC4 230614Z 28013KT 14/01 A2985 RMK A01 T01410013  RH  042%=      5-min Rain = 0
KMC4 230615Z 28012KT 14/01 A2985 RMK A01 T01400012  RH  042%=      5-min Rain = 0
KMC4 230616Z 29021KT 14/01 A2985 RMK A01 T01400012  RH  042%=      5-min Rain = 0
KMC4 230617Z 29019G25KT 14/01 A2985 RMK A01 T01400010  RH  041%=      5-min Rain = 0
KMC4 230618Z 28017KT 14/01 A2985 RMK A01 T01390010  RH  041%=      5-min Rain = 0
KMC4 230619Z 28017KT 14/01 A2985 RMK A01 T01390010  RH  041%=      5-min Rain = 0
KMC4 230620Z 28016G24KT 14/01 A2985 RMK A01 T01390010  RH  042%=      5-min Rain = 0
KMC4 230621Z 28022G28KT 14/01 A2985 RMK A01 T01380010  RH  042%=      5-min Rain = 0
KMC4 230622Z 28020KT 14/01 A2985 RMK A01 T01380009  RH  041%=      5-min Rain = 0
KMC4 230623Z 27018KT 14/01 A2986 RMK A01 T01380009  RH  041%=      5-min Rain = 0
KMC4 230624Z 28019KT 14/01 A2986 RMK A01 T01380010  RH  042%=      5-min Rain = 0
KMC4 230625Z 28019KT 14/01 A2986 RMK A01 T01370010  RH  042%=      5-min Rain = 0
KMC4 230626Z 29017KT 14/01 A2986 RMK A01 T01370010  RH  042%=      5-min Rain = 0
KMC4 230627Z 29016KT 14/01 A2986 RMK A01 T01360010  RH  042%=      5-min Rain = 0
KMC4 230628Z 29022G29KT 14/01 A2986 RMK A01 T01350008  RH  042%=      5-min Rain = 0
KMC4 230629Z 29023KT 13/01 A2986 RMK A01 T01340007  RH  042%=      5-min Rain = 0
KMC4 230630Z 29025G32KT 13/01 A2986 RMK A01 T01330006  RH  042%=      5-min Rain = 0
KMC4 230631Z 29026KT 13/01 A2986 RMK A01 T01320005  RH  042%=      5-min Rain = 0
KMC4 230632Z 29024G30KT 13/00 A2986 RMK A01 T01310004  RH  042%=      5-min Rain = 0
KMC4 230633Z 29025G32KT 13/00 A2986 RMK A01 T01300004  RH  042%=      5-min Rain = 0
KMC4 230634Z 29027G32KT 13/00 A2986 RMK A01 T01290003  RH  042%=      5-min Rain = 0
KMC4 230635Z 28022KT 13/00 A2987 RMK A01 T01280003  RH  042%=      5-min Rain = 0
KMC4 230636Z 28021G28KT 13/00 A2987 RMK A01 T01280003  RH  042%=      5-min Rain = 0
KMC4 230637Z 28025G30KT 13/00 A2987 RMK A01 T01260001  RH  042%=      5-min Rain = 0
KMC4 230638Z 28022KT 13/00 A2987 RMK A01 T012500-0  RH  042%=      5-min Rain = 0
KMC4 230639Z 29024KT 12/M00 A2988 RMK A01 T01241001  RH  042%=      5-min Rain = 0
KMC4 230640Z 29028G35KT 12/M00 A2988 RMK A01 T01231001  RH  042%=      5-min Rain = 0
KMC4 230641Z 28030KT 12/M00 A2987 RMK A01 T01221002  RH  042%=      5-min Rain = 0
KMC4 230642Z 28026G33KT 12/M00 A2988 RMK A01 T01211003  RH  042%=      5-min Rain = 0
KMC4 230643Z 28030KT 12/M00 A2988 RMK A01 T01201004  RH  042%=      5-min Rain = 0
KMC4 230644Z 28028G36KT 12/M00 A2988 RMK A01 T01191004  RH  042%=      5-min Rain = 0
KMC4 230645Z 29027G32KT 12/M00 A2988 RMK A01 T01191004  RH  043%=      5-min Rain = 0
KMC4 230646Z 28022G28KT 12/M01 A2988 RMK A01 T01181005  RH  043%=      5-min Rain = 0
KMC4 230647Z 29026G31KT 12/M01 A2988 RMK A01 T01171005  RH  043%=      5-min Rain = 0
KMC4 230648Z 29022KT 12/M01 A2988 RMK A01 T01171005  RH  043%=      5-min Rain = 0
KMC4 230649Z 29020G26KT 12/M01 A2989 RMK A01 T01161005  RH  043%=      5-min Rain = 0
KMC4 230650Z 29021G26KT 12/M00 A2989 RMK A01 T01161004  RH  043%=      5-min Rain = 0
KMC4 230651Z 29022G30KT 12/M01 A2989 RMK A01 T01161005  RH  043%=      5-min Rain = 0
KMC4 230652Z 29020KT 12/M01 A2989 RMK A01 T01151005  RH  043%=      5-min Rain = 0
KMC4 230653Z 29021G27KT 11/M01 A2989 RMK A01 T01141006  RH  043%=      5-min Rain = 0
KMC4 230654Z 29022G28KT 11/M01 A2989 RMK A01 T01141006  RH  043%=      5-min Rain = 0
KMC4 230655Z 29019G25KT 11/M01 A2989 RMK A01 T01141006  RH  044%=      5-min Rain = 0
KMC4 230656Z 29021G27KT 11/M01 A299 RMK A01 T01141006  RH  044%=      5-min Rain = 0
KMC4 230657Z 29021G26KT 11/M01 A2989 RMK A01 T01131006  RH  044%=      5-min Rain = 0
KMC4 230658Z 29020G25KT 11/M01 A299 RMK A01 T01131006  RH  044%=      5-min Rain = 0
KMC4 230659Z 29027G35KT 11/M01 A299 RMK A01 T01131006  RH  044%=      5-min Rain = 0
KMC4 230700Z 28022KT 11/M01 A299 RMK A01 T01121007  RH  044%=      5-min Rain = 0
KMC4 230701Z 29021G27KT 11/M01 A299 RMK A01 T01131006  RH  044%=      5-min Rain = 0
KMC4 230702Z 29024G29KT 11/M01 A299 RMK A01 T01121007  RH  044%=      5-min Rain = 0
KMC4 230703Z 29025KT 11/M01 A299 RMK A01 T01131007  RH  044%=      5-min Rain = 0
KMC4 230704Z 29023G28KT 11/M01 A299 RMK A01 T01121007  RH  044%=      5-min Rain = 0
KMC4 230705Z 29023G28KT 11/M01 A299 RMK A01 T01121007  RH  044%=      5-min Rain = 0
KMC4 230706Z 29022KT 11/M01 A299 RMK A01 T01121007  RH  044%=      5-min Rain = 0
KMC4 230707Z 29019G27KT 11/M01 A299 RMK A01 T01111007  RH  044%=      5-min Rain = 0
KMC4 230708Z 29022G29KT 11/M01 A299 RMK A01 T01111007  RH  044%=      5-min Rain = 0
KMC4 230709Z 30023G29KT 11/M01 A299 RMK A01 T01101007  RH  044%=      5-min Rain = 0
KMC4 230710Z 29022G29KT 11/M01 A299 RMK A01 T01101007  RH  044%=      5-min Rain = 0
KMC4 230711Z 29023G29KT 11/M01 A299 RMK A01 T01101007  RH  044%=      5-min Rain = 0
KMC4 230712Z 28023G29KT 11/M01 A299 RMK A01 T01101007  RH  044%=      5-min Rain = 0
KMC4 230713Z 29018G25KT 11/M01 A299 RMK A01 T01101007  RH  044%=      5-min Rain = 0
KMC4 230714Z 29020G29KT 11/M01 A299 RMK A01 T01091007  RH  044%=      5-min Rain = 0
KMC4 230715Z 29021G26KT 11/M01 A299 RMK A01 T01091008  RH  044%=      5-min Rain = 0
KMC4 230716Z 29019G24KT 11/M01 A299 RMK A01 T01091008  RH  044%=      5-min Rain = 0
KMC4 230717Z 30023G31KT 11/M01 A299 RMK A01 T01081008  RH  044%=      5-min Rain = 0
KMC4 230718Z 29025G30KT 11/M01 A299 RMK A01 T01081008  RH  044%=      5-min Rain = 0
KMC4 230719Z 29023KT 11/M01 A299 RMK A01 T01081009  RH  044%=      5-min Rain = 0
KMC4 230720Z 29026G31KT 11/M01 A299 RMK A01 T01081009  RH  044%=      5-min Rain = 0
KMC4 230721Z 29025KT 11/M01 A299 RMK A01 T01081009  RH  044%=      5-min Rain = 0
KMC4 230722Z 29023G29KT 11/M01 A299 RMK A01 T01071010  RH  044%=      5-min Rain = 0
KMC4 230723Z 29024G29KT 11/M01 A299 RMK A01 T01071011  RH  044%=      5-min Rain = 0
KMC4 230724Z 29022KT 11/M01 A299 RMK A01 T01071011  RH  044%=      5-min Rain = 0
KMC4 230725Z 29026G31KT 11/M01 A299 RMK A01 T01061011  RH  044%=      5-min Rain = 0
KMC4 230726Z 29028G35KT 11/M01 A299 RMK A01 T01061011  RH  044%=      5-min Rain = 0
KMC4 230727Z 29028G35KT 11/M01 A299 RMK A01 T01051012  RH  044%=      5-min Rain = 0
KMC4 230728Z 29026KT 11/M01 A299 RMK A01 T01061012  RH  044%=      5-min Rain = 0
KMC4 230729Z 29026G32KT 11/M01 A299 RMK A01 T01051012  RH  044%=      5-min Rain = 0
KMC4 230730Z 29024G30KT 11/M01 A2991 RMK A01 T01051012  RH  044%=      5-min Rain = 0
KMC4 230731Z 29020G25KT 10/M01 A2991 RMK A01 T01041012  RH  044%=      5-min Rain = 0
KMC4 230732Z 29022KT 10/M01 A2991 RMK A01 T01041012  RH  044%=      5-min Rain = 0
KMC4 230733Z 29026KT 10/M01 A2991 RMK A01 T01041012  RH  044%=      5-min Rain = 0
KMC4 230734Z 29023KT 10/M01 A2991 RMK A01 T01041012  RH  044%=      5-min Rain = 0
KMC4 230735Z 29023KT 10/M01 A2991 RMK A01 T01041012  RH  044%=      5-min Rain = 0
KMC4 230736Z 29024G30KT 10/M01 A2991 RMK A01 T01031013  RH  044%=      5-min Rain = 0
KMC4 230737Z 30022KT 10/M01 A2991 RMK A01 T01031013  RH  044%=      5-min Rain = 0
KMC4 230738Z 29023KT 10/M01 A2991 RMK A01 T01031013  RH  045%=      5-min Rain = 0
KMC4 230739Z 30018G23KT 10/M01 A2992 RMK A01 T01031012  RH  045%=      5-min Rain = 0
KMC4 230740Z 30019KT 10/M01 A2992 RMK A01 T01021012  RH  045%=      5-min Rain = 0
KMC4 230741Z 30016G21KT 10/M01 A2992 RMK A01 T01021012  RH  045%=      5-min Rain = 0
KMC4 230742Z 30019KT 10/M01 A2992 RMK A01 T01011012  RH  045%=      5-min Rain = 0
KMC4 230743Z 30022G27KT 10/M01 A2992 RMK A01 T01001013  RH  045%=      5-min Rain = 0
KMC4 230744Z 30018KT 10/M01 A2992 RMK A01 T00991013  RH  046%=      5-min Rain = 0
KMC4 230745Z 30019KT 10/M01 A2993 RMK A01 T00991012  RH  046%=      5-min Rain = 0
KMC4 230746Z 29022KT 10/M01 A2993 RMK A01 T00981013  RH  046%=      5-min Rain = 0
KMC4 230747Z 29020G25KT 10/M01 A2993 RMK A01 T00991013  RH  046%=      5-min Rain = 0
KMC4 230748Z 30016G22KT 10/M01 A2993 RMK A01 T00981014  RH  046%=      5-min Rain = 0
KMC4 230749Z 29017KT 10/M01 A2993 RMK A01 T00971014  RH  046%=      5-min Rain = 0
KMC4 230750Z 29019G24KT 10/M01 A2993 RMK A01 T00971014  RH  046%=      5-min Rain = 0
KMC4 230751Z 29019G26KT 10/M01 A2993 RMK A01 T00961014  RH  046%=      5-min Rain = 0
KMC4 230752Z 29023KT 10/M02 A2993 RMK A01 T00961015  RH  046%=      5-min Rain = 0
KMC4 230753Z 30022KT 10/M02 A2993 RMK A01 T00961015  RH  046%=      5-min Rain = 0
KMC4 230754Z 30022G27KT 10/M02 A2994 RMK A01 T00961015  RH  046%=      5-min Rain = 0
KMC4 230755Z 30021KT 10/M02 A2994 RMK A01 T00961016  RH  046%=      5-min Rain = 0
KMC4 230756Z 30023KT 10/M02 A2994 RMK A01 T00951016  RH  046%=      5-min Rain = 0
KMC4 230757Z 29020G25KT 10/M02 A2994 RMK A01 T00951016  RH  046%=      5-min Rain = 0
KMC4 230758Z 30020KT 09/M02 A2994 RMK A01 T00941017  RH  046%=      5-min Rain = 0
KMC4 230759Z 30020KT 09/M02 A2994 RMK A01 T00941017  RH  046%=      5-min Rain = 0
KMC4 230800Z 30017KT 09/M02 A2994 RMK A01 T00941017  RH  046%=      5-min Rain = 0
KMC4 230801Z 30020G27KT 09/M02 A2994 RMK A01 T00931017  RH  046%=      5-min Rain = 0
KMC4 230802Z 30019KT 09/M02 A2995 RMK A01 T00931017  RH  046%=      5-min Rain = 0
KMC4 230803Z 30019G24KT 09/M02 A2995 RMK A01 T00931017  RH  046%=      5-min Rain = 0
KMC4 230804Z 30018G24KT 09/M02 A2995 RMK A01 T00921017  RH  046%=      5-min Rain = 0
KMC4 230805Z 30020KT 09/M02 A2995 RMK A01 T00921017  RH  046%=      5-min Rain = 0
KMC4 230806Z 30018KT 09/M02 A2995 RMK A01 T00921017  RH  046%=      5-min Rain = 0
KMC4 230807Z 30018G24KT 09/M02 A2995 RMK A01 T00921017  RH  047%=      5-min Rain = 0
KMC4 230808Z 29014KT 09/M02 A2995 RMK A01 T00921017  RH  047%=      5-min Rain = 0
KMC4 230809Z 30016KT 09/M02 A2995 RMK A01 T00911017  RH  047%=      5-min Rain = 0
KMC4 230810Z 29016G21KT 09/M02 A2995 RMK A01 T00911017  RH  047%=      5-min Rain = 0
KMC4 230811Z 29020G25KT 09/M02 A2995 RMK A01 T00901017  RH  047%=      5-min Rain = 0
KMC4 230812Z 29017G23KT 09/M02 A2996 RMK A01 T00911017  RH  047%=      5-min Rain = 0
KMC4 230813Z 29014KT 09/M02 A2996 RMK A01 T00911017  RH  047%=      5-min Rain = 0
KMC4 230814Z 29018KT 09/M02 A2996 RMK A01 T00911017  RH  047%=      5-min Rain = 0
KMC4 230815Z 29016KT 09/M02 A2996 RMK A01 T00901017  RH  047%=      5-min Rain = 0
KMC4 230816Z 30015G20KT 09/M02 A2996 RMK A01 T00911017  RH  047%=      5-min Rain = 0
KMC4 230817Z 29017KT 09/M02 A2996 RMK A01 T00901016  RH  047%=      5-min Rain = 0
KMC4 230818Z 30017KT 09/M02 A2996 RMK A01 T00901016  RH  047%=      5-min Rain = 0
KMC4 230819Z 29014KT 09/M02 A2996 RMK A01 T00901016  RH  047%=      5-min Rain = 0
KMC4 230820Z 29011KT 09/M02 A2996 RMK A01 T00901016  RH  047%=      5-min Rain = 0
KMC4 230821Z 29010KT 09/M02 A2997 RMK A01 T00901016  RH  047%=      5-min Rain = 0
KMC4 230822Z 30010KT 09/M02 A2997 RMK A01 T00891017  RH  048%=      5-min Rain = 0
KMC4 230823Z 30011KT 09/M02 A2997 RMK A01 T00891016  RH  048%=      5-min Rain = 0
KMC4 230824Z 29010KT 09/M02 A2997 RMK A01 T00881017  RH  048%=      5-min Rain = 0
KMC4 230825Z 30010KT 09/M02 A2997 RMK A01 T00891016  RH  048%=      5-min Rain = 0
KMC4 230826Z 29009KT 09/M02 A2997 RMK A01 T00881017  RH  048%=      5-min Rain = 0
KMC4 230827Z 30009KT 09/M02 A2997 RMK A01 T00881016  RH  048%=      5-min Rain = 0
KMC4 230828Z 29009KT 09/M02 A2997 RMK A01 T00881016  RH  048%=      5-min Rain = 0
KMC4 230829Z 29008KT 09/M02 A2997 RMK A01 T00871016  RH  048%=      5-min Rain = 0
KMC4 230830Z 27007KT 09/M02 A2997 RMK A01 T00871016  RH  048%=      5-min Rain = 0
KMC4 230831Z 27007KT 09/M02 A2997 RMK A01 T00861016  RH  049%=      5-min Rain = 0
KMC4 230832Z 28008KT 09/M02 A2997 RMK A01 T00861016  RH  049%=      5-min Rain = 0
KMC4 230833Z 27014KT 09/M02 A2997 RMK A01 T00861017  RH  048%=      5-min Rain = 0
KMC4 230834Z 27013KT 09/M02 A2997 RMK A01 T00871017  RH  048%=      5-min Rain = 0
KMC4 230835Z 27017G24KT 09/M02 A2997 RMK A01 T00881018  RH  048%=      5-min Rain = 0
KMC4 230836Z 27017KT 09/M02 A2996 RMK A01 T00881018  RH  048%=      5-min Rain = 0
KMC4 230837Z 28018KT 09/M02 A2997 RMK A01 T00881018  RH  048%=      5-min Rain = 0
KMC4 230838Z 28021KT 09/M02 A2996 RMK A01 T00871018  RH  048%=      5-min Rain = 0
KMC4 230839Z 28017KT 09/M02 A2997 RMK A01 T00871018  RH  048%=      5-min Rain = 0
KMC4 230840Z 28015KT 09/M02 A2997 RMK A01 T00871018  RH  048%=      5-min Rain = 0
KMC4 230841Z 28019KT 09/M02 A2997 RMK A01 T00861018  RH  048%=      5-min Rain = 0
KMC4 230842Z 28017KT 09/M02 A2997 RMK A01 T00861018  RH  048%=      5-min Rain = 0
KMC4 230843Z 27015KT 09/M02 A2997 RMK A01 T00851018  RH  048%=      5-min Rain = 0
KMC4 230844Z 27014KT 08/M02 A2997 RMK A01 T00841018  RH  049%=      5-min Rain = 0
KMC4 230845Z 28016G22KT 08/M02 A2997 RMK A01 T00841018  RH  049%=      5-min Rain = 0
KMC4 230846Z 27018KT 08/M02 A2996 RMK A01 T00841019  RH  049%=      5-min Rain = 0
KMC4 230847Z 27019G25KT 08/M02 A2996 RMK A01 T00831019  RH  048%=      5-min Rain = 0
KMC4 230848Z 27016KT 08/M02 A2997 RMK A01 T00831019  RH  048%=      5-min Rain = 0
KMC4 230849Z 26017G22KT 08/M02 A2996 RMK A01 T00831019  RH  049%=      5-min Rain = 0
KMC4 230850Z 27013G18KT 08/M02 A2996 RMK A01 T00821019  RH  049%=      5-min Rain = 0
KMC4 230851Z 27017KT 08/M02 A2996 RMK A01 T00811019  RH  049%=      5-min Rain = 0
KMC4 230852Z 27014G19KT 08/M02 A2996 RMK A01 T00811019  RH  049%=      5-min Rain = 0
KMC4 230853Z 27014KT 08/M02 A2997 RMK A01 T00811019  RH  049%=      5-min Rain = 0
KMC4 230854Z 27015G20KT 08/M02 A2997 RMK A01 T00801019  RH  049%=      5-min Rain = 0
KMC4 230855Z 26013KT 08/M02 A2996 RMK A01 T00801019  RH  050%=      5-min Rain = 0
KMC4 230856Z 26015KT 08/M02 A2996 RMK A01 T00801019  RH  049%=      5-min Rain = 0
KMC4 230857Z 27015KT 08/M02 A2996 RMK A01 T00801020  RH  049%=      5-min Rain = 0
KMC4 230858Z 27012KT 08/M02 A2996 RMK A01 T00801020  RH  049%=      5-min Rain = 0
KMC4 230859Z 26013KT 08/M02 A2996 RMK A01 T00791020  RH  049%=      5-min Rain = 0
KMC4 230900Z 26013KT 08/M02 A2997 RMK A01 T00791020  RH  049%=      5-min Rain = 0
KMC4 230901Z 26015KT 08/M02 A2997 RMK A01 T00791020  RH  050%=      5-min Rain = 0
KMC4 230902Z 26013KT 08/M02 A2997 RMK A01 T00791020  RH  049%=      5-min Rain = 0
KMC4 230903Z 26010KT 08/M02 A2997 RMK A01 T00791020  RH  050%=      5-min Rain = 0
KMC4 230904Z 27011KT 08/M02 A2996 RMK A01 T00781020  RH  050%=      5-min Rain = 0
KMC4 230905Z 26012KT 08/M02 A2996 RMK A01 T00771020  RH  050%=      5-min Rain = 0
KMC4 230906Z 26012KT 08/M02 A2996 RMK A01 T00771020  RH  050%=      5-min Rain = 0
KMC4 230907Z 26018KT 08/M02 A2996 RMK A01 T00771021  RH  050%=      5-min Rain = 0
KMC4 230908Z 26015G21KT 08/M02 A2996 RMK A01 T00771021  RH  050%=      5-min Rain = 0
KMC4 230909Z 27015KT 08/M02 A2997 RMK A01 T00781022  RH  049%=      5-min Rain = 0
KMC4 230910Z 27018KT 08/M02 A2996 RMK A01 T00771022  RH  049%=      5-min Rain = 0
KMC4 230911Z 27018G24KT 08/M02 A2996 RMK A01 T00781023  RH  049%=      5-min Rain = 0
KMC4 230912Z 27018KT 08/M02 A2996 RMK A01 T00781023  RH  049%=      5-min Rain = 0
KMC4 230913Z 27017KT 08/M02 A2996 RMK A01 T00791023  RH  048%=      5-min Rain = 0
KMC4 230914Z 27014KT 08/M02 A2997 RMK A01 T00781024  RH  048%=      5-min Rain = 0
KMC4 230915Z 27016KT 08/M02 A2997 RMK A01 T00781023  RH  049%=      5-min Rain = 0
KMC4 230916Z 27018KT 08/M02 A2997 RMK A01 T00781024  RH  049%=      5-min Rain = 0
KMC4 230917Z 27017KT 08/M03 A2996 RMK A01 T00781025  RH  048%=      5-min Rain = 0
KMC4 230918Z 27016KT 08/M03 A2997 RMK A01 T00781025  RH  048%=      5-min Rain = 0
KMC4 230919Z 27015KT 08/M03 A2997 RMK A01 T00781025  RH  048%=      5-min Rain = 0
KMC4 230920Z 27017KT 08/M03 A2996 RMK A01 T00781025  RH  048%=      5-min Rain = 0
KMC4 230921Z 27018KT 08/M03 A2996 RMK A01 T00781026  RH  048%=      5-min Rain = 0
KMC4 230922Z 28018KT 08/M03 A2997 RMK A01 T00781026  RH  048%=      5-min Rain = 0
KMC4 230923Z 27018KT 08/M03 A2997 RMK A01 T00791026  RH  048%=      5-min Rain = 0
KMC4 230924Z 27019KT 08/M03 A2996 RMK A01 T00781026  RH  048%=      5-min Rain = 0
KMC4 230925Z 27018KT 08/M03 A2996 RMK A01 T00791026  RH  047%=      5-min Rain = 0
KMC4 230926Z 27021KT 08/M03 A2996 RMK A01 T00791026  RH  047%=      5-min Rain = 0
KMC4 230927Z 27021KT 08/M03 A2996 RMK A01 T00791027  RH  047%=      5-min Rain = 0
KMC4 230928Z 27018KT 08/M03 A2996 RMK A01 T00801027  RH  047%=      5-min Rain = 0
KMC4 230929Z 27018KT 08/M03 A2996 RMK A01 T00791026  RH  047%=      5-min Rain = 0
KMC4 230930Z 27018KT 08/M03 A2996 RMK A01 T00791026  RH  047%=      5-min Rain = 0
KMC4 230931Z 28021G26KT 08/M03 A2996 RMK A01 T00791027  RH  047%=      5-min Rain = 0
KMC4 230932Z 27019KT 08/M03 A2996 RMK A01 T00791027  RH  047%=      5-min Rain = 0
KMC4 230933Z 27018KT 08/M03 A2996 RMK A01 T00791027  RH  047%=      5-min Rain = 0
KMC4 230934Z 27017KT 08/M03 A2996 RMK A01 T00791027  RH  047%=      5-min Rain = 0
KMC4 230935Z 27016KT 08/M03 A2996 RMK A01 T00791027  RH  047%=      5-min Rain = 0
KMC4 230936Z 28016KT 08/M03 A2996 RMK A01 T00781027  RH  047%=      5-min Rain = 0
KMC4 230937Z 28018KT 08/M03 A2996 RMK A01 T00781027  RH  047%=      5-min Rain = 0
KMC4 230938Z 28019KT 08/M03 A2996 RMK A01 T00781027  RH  047%=      5-min Rain = 0
KMC4 230939Z 28018KT 08/M03 A2996 RMK A01 T00791027  RH  047%=      5-min Rain = 0
KMC4 230940Z 28016KT 08/M03 A2996 RMK A01 T00791027  RH  047%=      5-min Rain = 0
KMC4 230941Z 28017KT 08/M03 A2996 RMK A01 T00791027  RH  047%=      5-min Rain = 0
KMC4 230942Z 28016KT 08/M03 A2996 RMK A01 T00791027  RH  047%=      5-min Rain = 0
KMC4 230943Z 28015KT 08/M03 A2995 RMK A01 T00781027  RH  047%=      5-min Rain = 0
KMC4 230944Z 28018KT 08/M03 A2995 RMK A01 T00781027  RH  047%=      5-min Rain = 0
KMC4 230945Z 28015KT 08/M03 A2995 RMK A01 T00781027  RH  047%=      5-min Rain = 0
KMC4 230946Z 28014KT 08/M03 A2995 RMK A01 T00781027  RH  047%=      5-min Rain = 0
KMC4 230947Z 28015KT 08/M03 A2995 RMK A01 T00771027  RH  048%=      5-min Rain = 0
KMC4 230948Z 28013KT 08/M03 A2995 RMK A01 T00771027  RH  048%=      5-min Rain = 0
KMC4 230949Z 28014KT 08/M03 A2995 RMK A01 T00771027  RH  048%=      5-min Rain = 0
KMC4 230950Z 28014KT 08/M03 A2996 RMK A01 T00771027  RH  048%=      5-min Rain = 0
KMC4 230951Z 27014KT 08/M03 A2996 RMK A01 T00771027  RH  048%=      5-min Rain = 0
KMC4 230952Z 27015KT 08/M03 A2996 RMK A01 T00761028  RH  048%=      5-min Rain = 0
KMC4 230953Z 27014KT 08/M03 A2996 RMK A01 T00771028  RH  048%=      5-min Rain = 0
KMC4 230954Z 27013KT 08/M03 A2996 RMK A01 T00771028  RH  048%=      5-min Rain = 0
KMC4 230955Z 27011KT 08/M03 A2996 RMK A01 T00761028  RH  048%=      5-min Rain = 0
KMC4 230956Z 27012KT 08/M03 A2996 RMK A01 T00751028  RH  048%=      5-min Rain = 0
KMC4 230957Z 27012KT 08/M03 A2996 RMK A01 T00751027  RH  048%=      5-min Rain = 0
KMC4 230958Z 26012KT 08/M03 A2996 RMK A01 T00751028  RH  048%=      5-min Rain = 0
KMC4 230959Z 26011KT 08/M03 A2996 RMK A01 T00751028  RH  048%=      5-min Rain = 0
KMC4 231000Z 27009KT 08/M03 A2996 RMK A01 T00751028  RH  048%=      5-min Rain = 0
KMC4 231001Z 26010KT 07/M03 A2996 RMK A01 T00741028  RH  048%=      5-min Rain = 0
KMC4 231002Z 27010KT 07/M03 A2996 RMK A01 T00731028  RH  048%=      5-min Rain = 0
KMC4 231003Z 26010KT 07/M03 A2996 RMK A01 T00741028  RH  048%=      5-min Rain = 0
KMC4 231004Z 27008KT 07/M03 A2996 RMK A01 T00741028  RH  049%=      5-min Rain = 0
KMC4 231005Z 27009KT 07/M03 A2996 RMK A01 T00731028  RH  049%=      5-min Rain = 0
KMC4 231006Z 27009KT 07/M03 A2996 RMK A01 T00731028  RH  049%=      5-min Rain = 0
KMC4 231007Z 27007KT 07/M03 A2996 RMK A01 T00721028  RH  049%=      5-min Rain = 0
KMC4 231008Z 26008KT 07/M03 A2996 RMK A01 T00721027  RH  049%=      5-min Rain = 0
KMC4 231009Z 27009KT 07/M03 A2996 RMK A01 T00721028  RH  049%=      5-min Rain = 0
KMC4 231010Z 26008KT 07/M03 A2996 RMK A01 T00721028  RH  049%=      5-min Rain = 0
KMC4 231011Z 27010KT 07/M03 A2996 RMK A01 T00721027  RH  049%=      5-min Rain = 0
KMC4 231012Z 27010KT 07/M03 A2996 RMK A01 T00721027  RH  049%=      5-min Rain = 0
KMC4 231013Z 26011KT 07/M03 A2996 RMK A01 T00721027  RH  049%=      5-min Rain = 0
KMC4 231014Z 26010KT 07/M03 A2996 RMK A01 T00731027  RH  049%=      5-min Rain = 0
KMC4 231015Z 26010KT 07/M03 A2996 RMK A01 T00741027  RH  049%=      5-min Rain = 0
KMC4 231016Z 26008KT 07/M03 A2996 RMK A01 T00731027  RH  049%=      5-min Rain = 0
KMC4 231017Z 26010KT 07/M03 A2996 RMK A01 T00731027  RH  049%=      5-min Rain = 0
KMC4 231018Z 26010KT 07/M03 A2996 RMK A01 T00721027  RH  049%=      5-min Rain = 0
KMC4 231019Z 25010KT 07/M03 A2996 RMK A01 T00731027  RH  049%=      5-min Rain = 0
KMC4 231020Z 26009KT 07/M03 A2996 RMK A01 T00731027  RH  049%=      5-min Rain = 0
KMC4 231021Z 26010KT 07/M03 A2996 RMK A01 T00731027  RH  049%=      5-min Rain = 0
KMC4 231022Z 25008KT 07/M03 A2996 RMK A01 T00731027  RH  049%=      5-min Rain = 0
KMC4 231023Z 26009KT 07/M03 A2996 RMK A01 T00731027  RH  049%=      5-min Rain = 0
KMC4 231024Z 26009KT 07/M03 A2996 RMK A01 T00721027  RH  049%=      5-min Rain = 0
KMC4 231025Z 26008KT 07/M03 A2996 RMK A01 T00721027  RH  049%=      5-min Rain = 0
KMC4 231026Z 25008KT 07/M03 A2996 RMK A01 T00721027  RH  049%=      5-min Rain = 0
KMC4 231027Z 25009KT 07/M03 A2996 RMK A01 T00721028  RH  049%=      5-min Rain = 0
KMC4 231028Z 25010KT 07/M03 A2996 RMK A01 T00721028  RH  049%=      5-min Rain = 0
KMC4 231029Z 25010KT 07/M03 A2996 RMK A01 T00731029  RH  048%=      5-min Rain = 0
KMC4 231030Z 25010KT 07/M03 A2996 RMK A01 T00731029  RH  048%=      5-min Rain = 0
KMC4 231031Z 25008KT 07/M03 A2996 RMK A01 T00731029  RH  048%=      5-min Rain = 0
KMC4 231032Z 24008KT 07/M03 A2996 RMK A01 T00731029  RH  048%=      5-min Rain = 0
KMC4 231033Z 25009KT 07/M03 A2996 RMK A01 T00731030  RH  048%=      5-min Rain = 0
KMC4 231034Z 25010KT 07/M03 A2996 RMK A01 T00731031  RH  048%=      5-min Rain = 0
KMC4 231035Z 24008KT 07/M03 A2997 RMK A01 T00731032  RH  047%=      5-min Rain = 0
KMC4 231036Z 24007KT 07/M03 A2997 RMK A01 T00741032  RH  047%=      5-min Rain = 0
KMC4 231037Z 25008KT 07/M03 A2997 RMK A01 T00731032  RH  047%=      5-min Rain = 0
KMC4 231038Z 24009KT 07/M03 A2997 RMK A01 T00731032  RH  047%=      5-min Rain = 0
KMC4 231039Z 25009KT 07/M03 A2997 RMK A01 T00731033  RH  047%=      5-min Rain = 0
KMC4 231040Z 25008KT 07/M03 A2997 RMK A01 T00731034  RH  047%=      5-min Rain = 0
KMC4 231041Z 24011KT 07/M03 A2997 RMK A01 T00731034  RH  046%=      5-min Rain = 0
KMC4 231042Z 25008KT 08/M03 A2997 RMK A01 T00751034  RH  046%=      5-min Rain = 0
KMC4 231043Z 25007KT 08/M03 A2997 RMK A01 T00751034  RH  046%=      5-min Rain = 0
KMC4 231044Z 25011KT 07/M03 A2997 RMK A01 T00741034  RH  046%=      5-min Rain = 0
KMC4 231045Z 24009KT 08/M03 A2998 RMK A01 T00751034  RH  046%=      5-min Rain = 0
KMC4 231046Z 25008KT 08/M04 A2998 RMK A01 T00751035  RH  046%=      5-min Rain = 0
KMC4 231047Z 25008KT 08/M03 A2998 RMK A01 T00751034  RH  046%=      5-min Rain = 0
KMC4 231048Z 25009KT 08/M03 A2998 RMK A01 T00751034  RH  046%=      5-min Rain = 0
KMC4 231049Z 25009KT 07/M04 A2998 RMK A01 T00741035  RH  046%=      5-min Rain = 0
KMC4 231050Z 25010KT 08/M03 A2998 RMK A01 T00751034  RH  046%=      5-min Rain = 0
KMC4 231051Z 25009KT 08/M03 A2998 RMK A01 T00751034  RH  046%=      5-min Rain = 0
KMC4 231052Z 25009KT 08/M03 A2998 RMK A01 T00761034  RH  046%=      5-min Rain = 0
KMC4 231053Z 26010KT 08/M03 A2998 RMK A01 T00761034  RH  046%=      5-min Rain = 0
KMC4 231054Z 26008KT 08/M03 A2998 RMK A01 T00761034  RH  046%=      5-min Rain = 0
KMC4 231055Z 26009KT 08/M03 A2998 RMK A01 T00761034  RH  046%=      5-min Rain = 0
KMC4 231056Z 26009KT 08/M03 A2998 RMK A01 T00761034  RH  046%=      5-min Rain = 0
KMC4 231057Z 27009KT 08/M03 A2998 RMK A01 T00761034  RH  046%=      5-min Rain = 0
KMC4 231058Z 27007KT 08/M03 A2998 RMK A01 T00751033  RH  046%=      5-min Rain = 0
KMC4 231059Z 26007KT 07/M03 A2998 RMK A01 T00741033  RH  046%=      5-min Rain = 0
KMC4 231100Z 27008KT 07/M03 A2999 RMK A01 T00741033  RH  047%=      5-min Rain = 0
KMC4 231101Z 27009KT 07/M03 A2999 RMK A01 T00731033  RH  047%=      5-min Rain = 0
KMC4 231102Z 26010KT 07/M03 A2999 RMK A01 T00731033  RH  047%=      5-min Rain = 0
KMC4 231103Z 27010KT 07/M03 A2998 RMK A01 T00741033  RH  046%=      5-min Rain = 0
KMC4 231104Z 26012KT 08/M03 A2998 RMK A01 T00751033  RH  046%=      5-min Rain = 0
KMC4 231105Z 26013KT 08/M03 A2998 RMK A01 T00751034  RH  046%=      5-min Rain = 0
KMC4 231106Z 26011KT 08/M03 A2998 RMK A01 T00751034  RH  046%=      5-min Rain = 0
KMC4 231107Z 26011KT 08/M03 A2999 RMK A01 T00751034  RH  046%=      5-min Rain = 0
KMC4 231108Z 26013KT 08/M03 A2999 RMK A01 T00751034  RH  046%=      5-min Rain = 0
KMC4 231109Z 26011KT 08/M04 A2999 RMK A01 T00751035  RH  046%=      5-min Rain = 0
KMC4 231110Z 26011KT 08/M03 A2999 RMK A01 T00751034  RH  046%=      5-min Rain = 0
KMC4 231111Z 26012KT 07/M03 A2999 RMK A01 T00741034  RH  046%=      5-min Rain = 0
KMC4 231112Z 26011KT 07/M03 A2999 RMK A01 T00741034  RH  046%=      5-min Rain = 0
KMC4 231113Z 26012KT 07/M04 A2999 RMK A01 T00741035  RH  046%=      5-min Rain = 0
KMC4 231114Z 26013G18KT 07/M04 A2999 RMK A01 T00731035  RH  046%=      5-min Rain = 0
KMC4 231115Z 26011KT 07/M04 A2999 RMK A01 T00731035  RH  046%=      5-min Rain = 0
KMC4 231116Z 26011KT 07/M04 A2999 RMK A01 T00721035  RH  046%=      5-min Rain = 0
KMC4 231117Z 26012KT 07/M04 A2999 RMK A01 T00721035  RH  046%=      5-min Rain = 0
KMC4 231118Z 26012KT 07/M04 A2999 RMK A01 T00721035  RH  046%=      5-min Rain = 0
KMC4 231119Z 26013KT 07/M04 A2999 RMK A01 T00721035  RH  046%=      5-min Rain = 0
KMC4 231120Z 26012KT 07/M04 A2999 RMK A01 T00721035  RH  046%=      5-min Rain = 0
KMC4 231121Z 26012KT 07/M04 A2999 RMK A01 T00721036  RH  046%=      5-min Rain = 0
KMC4 231122Z 26011KT 07/M04 A2999 RMK A01 T00721036  RH  046%=      5-min Rain = 0
KMC4 231123Z 27014KT 07/M04 A2998 RMK A01 T00711036  RH  046%=      5-min Rain = 0
KMC4 231124Z 26013KT 07/M04 A2998 RMK A01 T00721037  RH  046%=      5-min Rain = 0
KMC4 231125Z 27013G18KT 07/M04 A2998 RMK A01 T00731036  RH  046%=      5-min Rain = 0
KMC4 231126Z 27012KT 07/M04 A2998 RMK A01 T00721036  RH  046%=      5-min Rain = 0
KMC4 231127Z 27014KT 07/M04 A2998 RMK A01 T00721037  RH  046%=      5-min Rain = 0
KMC4 231128Z 27016KT 07/M04 A2998 RMK A01 T00721037  RH  046%=      5-min Rain = 0
KMC4 231129Z 27014KT 07/M04 A2998 RMK A01 T00731037  RH  046%=      5-min Rain = 0
KMC4 231130Z 27013KT 07/M04 A2998 RMK A01 T00731037  RH  046%=      5-min Rain = 0
KMC4 231131Z 27013KT 07/M04 A2998 RMK A01 T00721037  RH  046%=      5-min Rain = 0
KMC4 231132Z 27015KT 07/M04 A2998 RMK A01 T00721037  RH  046%=      5-min Rain = 0
KMC4 231133Z 27014KT 07/M04 A2998 RMK A01 T00721038  RH  046%=      5-min Rain = 0
KMC4 231134Z 27015KT 07/M04 A2998 RMK A01 T00731038  RH  045%=      5-min Rain = 0
KMC4 231135Z 27013KT 07/M04 A2998 RMK A01 T00731038  RH  045%=      5-min Rain = 0
KMC4 231136Z 27016KT 07/M04 A2998 RMK A01 T00721038  RH  045%=      5-min Rain = 0
KMC4 231137Z 26014KT 07/M04 A2998 RMK A01 T00731038  RH  045%=      5-min Rain = 0
KMC4 231138Z 26013KT 07/M04 A2998 RMK A01 T00731038  RH  045%=      5-min Rain = 0
KMC4 231139Z 26015KT 07/M04 A2998 RMK A01 T00731039  RH  045%=      5-min Rain = 0
KMC4 231140Z 26013KT 07/M04 A2998 RMK A01 T00721039  RH  045%=      5-min Rain = 0
KMC4 231141Z 26013KT 07/M04 A2998 RMK A01 T00731038  RH  045%=      5-min Rain = 0
KMC4 231142Z 26013KT 07/M04 A2998 RMK A01 T00721039  RH  045%=      5-min Rain = 0
KMC4 231143Z 26013KT 07/M04 A2998 RMK A01 T00721039  RH  045%=      5-min Rain = 0
KMC4 231144Z 26012KT 07/M04 A2999 RMK A01 T00721039  RH  045%=      5-min Rain = 0
KMC4 231145Z 27011KT 07/M04 A2999 RMK A01 T00721038  RH  045%=      5-min Rain = 0
KMC4 231146Z 26012KT 07/M04 A2999 RMK A01 T00711039  RH  045%=      5-min Rain = 0
KMC4 231147Z 26011KT 07/M04 A2999 RMK A01 T00711039  RH  046%=      5-min Rain = 0
KMC4 231148Z 26012KT 07/M04 A2999 RMK A01 T00711039  RH  046%=      5-min Rain = 0
KMC4 231149Z 26010KT 07/M04 A2999 RMK A01 T00701039  RH  046%=      5-min Rain = 0
KMC4 231150Z 26009KT 07/M04 A2999 RMK A01 T00701039  RH  046%=      5-min Rain = 0
KMC4 231151Z 26010KT 07/M04 A2999 RMK A01 T00681039  RH  046%=      5-min Rain = 0
KMC4 231152Z 26011KT 07/M04 A2999 RMK A01 T00681039  RH  047%=      5-min Rain = 0
KMC4 231153Z 26010KT 07/M04 A2999 RMK A01 T00681039  RH  046%=      5-min Rain = 0
KMC4 231154Z 26010KT 07/M04 A2999 RMK A01 T00681039  RH  046%=      5-min Rain = 0
KMC4 231155Z 25010KT 07/M04 A2999 RMK A01 T00671039  RH  047%=      5-min Rain = 0
KMC4 231156Z 26010KT 07/M04 A2999 RMK A01 T00671039  RH  047%=      5-min Rain = 0
KMC4 231157Z 26011KT 07/M04 A2999 RMK A01 T00671039  RH  047%=      5-min Rain = 0
KMC4 231158Z 25009KT 07/M04 A2999 RMK A01 T00671039  RH  047%=      5-min Rain = 0
KMC4 231159Z 26009KT 07/M04 A2999 RMK A01 T00671039  RH  047%=      5-min Rain = 0
KMC4 231200Z 25010KT 07/M04 A2999 RMK A01 T00661039  RH  047%=      5-min Rain = 0
KMC4 231201Z 26009KT 07/M04 A2999 RMK A01 T00651039  RH  047%=      5-min Rain = 0
KMC4 231202Z 26009KT 07/M04 A2999 RMK A01 T00651039  RH  047%=      5-min Rain = 0
KMC4 231203Z 26008KT 07/M04 A2999 RMK A01 T00651039  RH  047%=      5-min Rain = 0
KMC4 231204Z 27010KT 07/M04 A2999 RMK A01 T00651040  RH  047%=      5-min Rain = 0
KMC4 231205Z 27009KT 07/M04 A2999 RMK A01 T00651040  RH  047%=      5-min Rain = 0
KMC4 231206Z 27009KT 07/M04 A2999 RMK A01 T00651040  RH  047%=      5-min Rain = 0
KMC4 231207Z 27011KT 07/M04 A30 RMK A01 T00651040  RH  047%=      5-min Rain = 0
KMC4 231208Z 27007KT 07/M04 A2999 RMK A01 T00651040  RH  047%=      5-min Rain = 0
KMC4 231209Z 27008KT 06/M04 A2999 RMK A01 T00641040  RH  047%=      5-min Rain = 0
KMC4 231210Z 28009KT 06/M04 A2999 RMK A01 T00631040  RH  048%=      5-min Rain = 0
KMC4 231211Z 27009KT 06/M04 A30 RMK A01 T00621040  RH  048%=      5-min Rain = 0
KMC4 231212Z 28009KT 06/M04 A30 RMK A01 T00621040  RH  048%=      5-min Rain = 0
KMC4 231213Z 28009KT 06/M04 A30 RMK A01 T00621040  RH  048%=      5-min Rain = 0
KMC4 231214Z 28008KT 06/M04 A30 RMK A01 T00621039  RH  048%=      5-min Rain = 0
KMC4 231215Z 28009KT 06/M04 A30 RMK A01 T00621040  RH  048%=      5-min Rain = 0
KMC4 231216Z 28009KT 06/M04 A30 RMK A01 T00611039  RH  048%=      5-min Rain = 0
KMC4 231217Z 28008KT 06/M04 A30 RMK A01 T00611039  RH  049%=      5-min Rain = 0
KMC4 231218Z 28008KT 06/M04 A30 RMK A01 T00601039  RH  049%=      5-min Rain = 0
KMC4 231219Z 29008KT 06/M04 A30 RMK A01 T00591039  RH  049%=      5-min Rain = 0
KMC4 231220Z 29008KT 06/M04 A30 RMK A01 T00591039  RH  049%=      5-min Rain = 0
KMC4 231221Z 29008KT 06/M04 A2999 RMK A01 T00581039  RH  050%=      5-min Rain = 0
KMC4 231222Z 29009KT 06/M04 A2999 RMK A01 T00581039  RH  050%=      5-min Rain = 0
KMC4 231223Z 29008KT 06/M04 A2999 RMK A01 T00581038  RH  050%=      5-min Rain = 0
KMC4 231224Z 29008KT 06/M04 A2999 RMK A01 T00581038  RH  050%=      5-min Rain = 0
KMC4 231225Z 29008KT 06/M04 A2999 RMK A01 T00571038  RH  050%=      5-min Rain = 0
KMC4 231226Z 29009KT 06/M04 A30 RMK A01 T00571038  RH  050%=      5-min Rain = 0
KMC4 231227Z 29008KT 06/M04 A30 RMK A01 T00571038  RH  050%=      5-min Rain = 0
KMC4 231228Z 29009KT 06/M04 A30 RMK A01 T00571038  RH  051%=      5-min Rain = 0
KMC4 231229Z 29009KT 06/M04 A30 RMK A01 T00571038  RH  051%=      5-min Rain = 0
KMC4 231230Z 29010KT 06/M04 A30 RMK A01 T00571037  RH  051%=      5-min Rain = 0
KMC4 231231Z 28010KT 06/M04 A30 RMK A01 T00571038  RH  051%=      5-min Rain = 0
KMC4 231232Z 28010KT 06/M04 A30 RMK A01 T00571038  RH  051%=      5-min Rain = 0
KMC4 231233Z 28009KT 06/M04 A30 RMK A01 T00571038  RH  051%=      5-min Rain = 0
KMC4 231234Z 27009KT 06/M04 A30 RMK A01 T00571037  RH  051%=      5-min Rain = 0
KMC4 231235Z 27009KT 06/M04 A30 RMK A01 T00561038  RH  051%=      5-min Rain = 0
KMC4 231236Z 27009KT 06/M04 A30 RMK A01 T00561038  RH  051%=      5-min Rain = 0
KMC4 231237Z 26010KT 06/M04 A30 RMK A01 T00561038  RH  051%=      5-min Rain = 0
KMC4 231238Z 26009KT 06/M04 A30 RMK A01 T00561038  RH  051%=      5-min Rain = 0
KMC4 231239Z 26008KT 06/M04 A30 RMK A01 T00561038  RH  051%=      5-min Rain = 0
KMC4 231240Z 27008KT 06/M04 A30 RMK A01 T00551038  RH  051%=      5-min Rain = 0
KMC4 231241Z 27010KT 06/M04 A30 RMK A01 T00551038  RH  051%=      5-min Rain = 0
KMC4 231242Z 27009KT 06/M04 A30 RMK A01 T00551038  RH  051%=      5-min Rain = 0
KMC4 231243Z 27008KT 06/M04 A30 RMK A01 T00551038  RH  051%=      5-min Rain = 0
KMC4 231244Z 27008KT 05/M04 A30 RMK A01 T00541038  RH  052%=      5-min Rain = 0
KMC4 231245Z 28010KT 05/M04 A30 RMK A01 T00541038  RH  052%=      5-min Rain = 0
KMC4 231246Z 28010KT 05/M04 A30 RMK A01 T00541038  RH  051%=      5-min Rain = 0
KMC4 231247Z 28009KT 06/M04 A30 RMK A01 T00551038  RH  051%=      5-min Rain = 0
KMC4 231248Z 28008KT 06/M04 A30 RMK A01 T00551038  RH  051%=      5-min Rain = 0
KMC4 231249Z 28009KT 05/M04 A30 RMK A01 T00541038  RH  051%=      5-min Rain = 0
KMC4 231250Z 29008KT 05/M04 A30 RMK A01 T00541038  RH  051%=      5-min Rain = 0
KMC4 231251Z 28009KT 05/M04 A3001 RMK A01 T00541038  RH  051%=      5-min Rain = 0
KMC4 231252Z 28009KT 05/M04 A3001 RMK A01 T00541038  RH  051%=      5-min Rain = 0
KMC4 231253Z 29008KT 05/M04 A3001 RMK A01 T00541039  RH  051%=      5-min Rain = 0
KMC4 231254Z 28008KT 05/M04 A3001 RMK A01 T00541039  RH  051%=      5-min Rain = 0
KMC4 231255Z 28008KT 05/M04 A3001 RMK A01 T00531039  RH  052%=      5-min Rain = 0
KMC4 231256Z 28008KT 05/M04 A3001 RMK A01 T00521039  RH  052%=      5-min Rain = 0
KMC4 231257Z 28009KT 05/M04 A3001 RMK A01 T00521039  RH  052%=      5-min Rain = 0
KMC4 231258Z 28008KT 05/M04 A3001 RMK A01 T00521040  RH  051%=      5-min Rain = 0
KMC4 231259Z 29009KT 05/M04 A3001 RMK A01 T00521040  RH  052%=      5-min Rain = 0
KMC4 231300Z 29009KT 05/M04 A3001 RMK A01 T00511040  RH  052%=      5-min Rain = 0
KMC4 231301Z 28010KT 05/M04 A3001 RMK A01 T00511040  RH  052%=      5-min Rain = 0
KMC4 231302Z 28008KT 05/M04 A3001 RMK A01 T00511040  RH  052%=      5-min Rain = 0
KMC4 231303Z 28008KT 05/M04 A3001 RMK A01 T00511040  RH  052%=      5-min Rain = 0
KMC4 231304Z 28008KT 05/M04 A3001 RMK A01 T00501040  RH  052%=      5-min Rain = 0
KMC4 231305Z 28008KT 05/M04 A3001 RMK A01 T00501040  RH  052%=      5-min Rain = 0
KMC4 231306Z 28008KT 05/M04 A3001 RMK A01 T00501040  RH  052%=      5-min Rain = 0
KMC4 231307Z 28008KT 05/M04 A3001 RMK A01 T00491041  RH  052%=      5-min Rain = 0
KMC4 231308Z 28008KT 05/M04 A3001 RMK A01 T00491040  RH  052%=      5-min Rain = 0
KMC4 231309Z 28008KT 05/M04 A3001 RMK A01 T00491041  RH  052%=      5-min Rain = 0
KMC4 231310Z 29008KT 05/M04 A3001 RMK A01 T00481041  RH  053%=      5-min Rain = 0
KMC4 231311Z 29009KT 05/M04 A3001 RMK A01 T00481041  RH  053%=      5-min Rain = 0
KMC4 231312Z 29010KT 05/M04 A3001 RMK A01 T00481041  RH  052%=      5-min Rain = 0
KMC4 231313Z 29009KT 05/M04 A3001 RMK A01 T00481042  RH  052%=      5-min Rain = 0
KMC4 231314Z 29009KT 05/M04 A3001 RMK A01 T00481042  RH  052%=      5-min Rain = 0
KMC4 231315Z 29010KT 05/M04 A3001 RMK A01 T00481043  RH  052%=      5-min Rain = 0
KMC4 231316Z 29011KT 05/M04 A3001 RMK A01 T00481043  RH  052%=      5-min Rain = 0
KMC4 231317Z 29011KT 05/M04 A3001 RMK A01 T00491044  RH  051%=      5-min Rain = 0
KMC4 231318Z 29010KT 05/M04 A3001 RMK A01 T00501044  RH  051%=      5-min Rain = 0
KMC4 231319Z 29012KT 05/M04 A3001 RMK A01 T00501044  RH  050%=      5-min Rain = 0
KMC4 231320Z 29011KT 05/M04 A3001 RMK A01 T00511044  RH  050%=      5-min Rain = 0
KMC4 231321Z 29012KT 05/M05 A3001 RMK A01 T00521045  RH  050%=      5-min Rain = 0
KMC4 231322Z 29012KT 05/M05 A3001 RMK A01 T00521045  RH  050%=      5-min Rain = 0
KMC4 231323Z 29012KT 05/M05 A3001 RMK A01 T00521045  RH  050%=      5-min Rain = 0
KMC4 231324Z 29011KT 05/M05 A3001 RMK A01 T00521045  RH  050%=      5-min Rain = 0
KMC4 231325Z 29010KT 05/M05 A3001 RMK A01 T00521045  RH  050%=      5-min Rain = 0
KMC4 231326Z 29010KT 05/M05 A3001 RMK A01 T00511045  RH  050%=      5-min Rain = 0
KMC4 231327Z 30012KT 05/M05 A3001 RMK A01 T00501045  RH  050%=      5-min Rain = 0
KMC4 231328Z 29010KT 05/M05 A3001 RMK A01 T00501045  RH  050%=      5-min Rain = 0
KMC4 231329Z 29011KT 05/M05 A3001 RMK A01 T00501046  RH  050%=      5-min Rain = 0
KMC4 231330Z 29010KT 05/M05 A3001 RMK A01 T00491046  RH  050%=      5-min Rain = 0
KMC4 231331Z 28011KT 05/M05 A30 RMK A01 T00491046  RH  050%=      5-min Rain = 0
KMC4 231332Z 28011KT 05/M05 A30 RMK A01 T00491046  RH  050%=      5-min Rain = 0
KMC4 231333Z 28010KT 05/M05 A3001 RMK A01 T00491046  RH  050%=      5-min Rain = 0
KMC4 231334Z 29011KT 05/M05 A3001 RMK A01 T00481047  RH  050%=      5-min Rain = 0
KMC4 231335Z 29010KT 05/M05 A3001 RMK A01 T00481047  RH  050%=      5-min Rain = 0
KMC4 231336Z 29011KT 05/M05 A3001 RMK A01 T00481047  RH  050%=      5-min Rain = 0
KMC4 231337Z 29010KT 05/M05 A3001 RMK A01 T00481047  RH  050%=      5-min Rain = 0
KMC4 231338Z 28012KT 05/M05 A3001 RMK A01 T00481047  RH  050%=      5-min Rain = 0
KMC4 231339Z 28013KT 05/M05 A30 RMK A01 T00481048  RH  050%=      5-min Rain = 0
KMC4 231340Z 28013KT 05/M05 A30 RMK A01 T00491049  RH  049%=      5-min Rain = 0
KMC4 231341Z 29013KT 05/M05 A30 RMK A01 T00501049  RH  049%=      5-min Rain = 0
KMC4 231342Z 29013KT 05/M05 A30 RMK A01 T00501049  RH  049%=      5-min Rain = 0
KMC4 231343Z 29014KT 05/M05 A30 RMK A01 T00511049  RH  048%=      5-min Rain = 0
KMC4 231344Z 29013KT 05/M05 A30 RMK A01 T00511050  RH  048%=      5-min Rain = 0
KMC4 231345Z 29015KT 05/M05 A30 RMK A01 T00521050  RH  048%=      5-min Rain = 0
KMC4 231346Z 29014KT 05/M05 A30 RMK A01 T00531051  RH  047%=      5-min Rain = 0
KMC4 231347Z 29015KT 05/M05 A30 RMK A01 T00531051  RH  047%=      5-min Rain = 0
KMC4 231348Z 29015KT 05/M05 A30 RMK A01 T00541052  RH  047%=      5-min Rain = 0
KMC4 231349Z 29013G18KT 05/M05 A30 RMK A01 T00541052  RH  046%=      5-min Rain = 0
KMC4 231350Z 29015KT 06/M05 A30 RMK A01 T00551053  RH  046%=      5-min Rain = 0
KMC4 231351Z 29014G19KT 06/M05 A30 RMK A01 T00551053  RH  046%=      5-min Rain = 0
KMC4 231352Z 29015KT 06/M05 A30 RMK A01 T00561053  RH  045%=      5-min Rain = 0
KMC4 231353Z 29015KT 06/M05 A30 RMK A01 T00571054  RH  045%=      5-min Rain = 0
KMC4 231354Z 29014KT 06/M05 A30 RMK A01 T00581054  RH  044%=      5-min Rain = 0
KMC4 231355Z 29016KT 06/M05 A30 RMK A01 T00581054  RH  044%=      5-min Rain = 0
KMC4 231356Z 29015G20KT 06/M06 A30 RMK A01 T00591055  RH  044%=      5-min Rain = 0
KMC4 231357Z 29017KT 06/M06 A30 RMK A01 T00601055  RH  043%=      5-min Rain = 0
KMC4 231358Z 29016KT 06/M06 A3001 RMK A01 T00611055  RH  043%=      5-min Rain = 0
KMC4 231359Z 29015KT 06/M06 A30 RMK A01 T00611056  RH  043%=      5-min Rain = 0
KMC4 231400Z 29014KT 06/M06 A3001 RMK A01 T00621056  RH  043%=      5-min Rain = 0
KMC4 231401Z 29013KT 06/M06 A3001 RMK A01 T00621055  RH  043%=      5-min Rain = 0
KMC4 231402Z 29016KT 06/M06 A3001 RMK A01 T00621055  RH  043%=      5-min Rain = 0
KMC4 231403Z 29014KT 06/M06 A3001 RMK A01 T00621055  RH  043%=      5-min Rain = 0
KMC4 231404Z 29013G18KT 06/M06 A3001 RMK A01 T00621055  RH  043%=      5-min Rain = 0
KMC4 231405Z 29014KT 06/M06 A3001 RMK A01 T00611055  RH  043%=      5-min Rain = 0
KMC4 231406Z 29013KT 06/M06 A3001 RMK A01 T00621055  RH  043%=      5-min Rain = 0
KMC4 231407Z 29014KT 06/M06 A3001 RMK A01 T00621055  RH  043%=      5-min Rain = 0
KMC4 231408Z 28014KT 06/M06 A3001 RMK A01 T00621055  RH  043%=      5-min Rain = 0
KMC4 231409Z 29013KT 06/M06 A3001 RMK A01 T00621056  RH  043%=      5-min Rain = 0
KMC4 231410Z 28015KT 06/M06 A3001 RMK A01 T00621055  RH  043%=      5-min Rain = 0
KMC4 231411Z 28013KT 06/M06 A3001 RMK A01 T00631055  RH  042%=      5-min Rain = 0
KMC4 231412Z 28016KT 06/M06 A3001 RMK A01 T00631055  RH  042%=      5-min Rain = 0
KMC4 231413Z 28015KT 06/M06 A3001 RMK A01 T00641056  RH  042%=      5-min Rain = 0
KMC4 231414Z 28013KT 06/M06 A3001 RMK A01 T00641056  RH  042%=      5-min Rain = 0
KMC4 231415Z 28014KT 06/M06 A3001 RMK A01 T00641055  RH  042%=      5-min Rain = 0
KMC4 231416Z 27013KT 07/M06 A3001 RMK A01 T00651055  RH  042%=      5-min Rain = 0
KMC4 231417Z 28013KT 07/M06 A3001 RMK A01 T00651055  RH  042%=      5-min Rain = 0
KMC4 231418Z 27012KT 07/M06 A3001 RMK A01 T00651055  RH  042%=      5-min Rain = 0
KMC4 231419Z 28015KT 07/M06 A3002 RMK A01 T00661055  RH  042%=      5-min Rain = 0
KMC4 231420Z 28016KT 07/M06 A3002 RMK A01 T00661056  RH  041%=      5-min Rain = 0
KMC4 231421Z 28014KT 07/M06 A3002 RMK A01 T00671056  RH  041%=      5-min Rain = 0
KMC4 231422Z 28018KT 07/M06 A3001 RMK A01 T00681056  RH  041%=      5-min Rain = 0
KMC4 231423Z 28015KT 07/M06 A3001 RMK A01 T00681057  RH  040%=      5-min Rain = 0
KMC4 231424Z 28016KT 07/M06 A3001 RMK A01 T00691057  RH  040%=      5-min Rain = 0
KMC4 231425Z 28016KT 07/M06 A3001 RMK A01 T00691057  RH  040%=      5-min Rain = 0
KMC4 231426Z 28014KT 07/M06 A3001 RMK A01 T00691057  RH  040%=      5-min Rain = 0
KMC4 231427Z 28013KT 07/M06 A3002 RMK A01 T00691056  RH  040%=      5-min Rain = 0
KMC4 231428Z 28015G20KT 07/M06 A3002 RMK A01 T00701056  RH  040%=      5-min Rain = 0
KMC4 231429Z 28014KT 07/M06 A3002 RMK A01 T00701057  RH  040%=      5-min Rain = 0
KMC4 231430Z 28019KT 07/M06 A3002 RMK A01 T00711057  RH  040%=      5-min Rain = 0
KMC4 231431Z 28018KT 07/M06 A3002 RMK A01 T00711058  RH  039%=      5-min Rain = 0
KMC4 231432Z 28018KT 07/M06 A3002 RMK A01 T00711058  RH  039%=      5-min Rain = 0
KMC4 231433Z 28017KT 07/M06 A3002 RMK A01 T00721058  RH  039%=      5-min Rain = 0
KMC4 231434Z 27017KT 07/M06 A3002 RMK A01 T00721058  RH  039%=      5-min Rain = 0
KMC4 231435Z 28018KT 07/M06 A3002 RMK A01 T00731058  RH  039%=      5-min Rain = 0
KMC4 231436Z 28019KT 07/M06 A3002 RMK A01 T00731058  RH  039%=      5-min Rain = 0
KMC4 231437Z 28021KT 07/M06 A3001 RMK A01 T00731059  RH  038%=      5-min Rain = 0
KMC4 231438Z 28021KT 07/M06 A3001 RMK A01 T00741060  RH  038%=      5-min Rain = 0
KMC4 231439Z 28019G24KT 08/M06 A3001 RMK A01 T00751060  RH  038%=      5-min Rain = 0
KMC4 231440Z 28016KT 08/M06 A3001 RMK A01 T00751059  RH  038%=      5-min Rain = 0
KMC4 231441Z 28020KT 08/M06 A3001 RMK A01 T00761060  RH  037%=      5-min Rain = 0
KMC4 231442Z 28022G30KT 08/M06 A3001 RMK A01 T00771061  RH  037%=      5-min Rain = 0
KMC4 231443Z 28020G26KT 08/M06 A3001 RMK A01 T00781062  RH  037%=      5-min Rain = 0
KMC4 231444Z 28022G28KT 08/M06 A3001 RMK A01 T00781062  RH  036%=      5-min Rain = 0
KMC4 231445Z 28018KT 08/M06 A3001 RMK A01 T00791062  RH  036%=      5-min Rain = 0
KMC4 231446Z 28019KT 08/M06 A3001 RMK A01 T00801061  RH  036%=      5-min Rain = 0
KMC4 231447Z 28023KT 08/M06 A3001 RMK A01 T00801063  RH  036%=      5-min Rain = 0
KMC4 231448Z 28023G28KT 08/M06 A3001 RMK A01 T00811064  RH  035%=      5-min Rain = 0
KMC4 231449Z 28022G28KT 08/M06 A3001 RMK A01 T00811064  RH  035%=      5-min Rain = 0
KMC4 231450Z 28020KT 08/M06 A3001 RMK A01 T00821064  RH  035%=      5-min Rain = 0
KMC4 231451Z 27022KT 08/M06 A3001 RMK A01 T00821063  RH  035%=      5-min Rain = 0
KMC4 231452Z 28023KT 08/M06 A3001 RMK A01 T00831063  RH  035%=      5-min Rain = 0
KMC4 231453Z 28022KT 08/M06 A3001 RMK A01 T00831064  RH  035%=      5-min Rain = 0
KMC4 231454Z 28024KT 08/M06 A3001 RMK A01 T00841064  RH  034%=      5-min Rain = 0
KMC4 231455Z 28025G30KT 08/M07 A3001 RMK A01 T00841065  RH  034%=      5-min Rain = 0
KMC4 231456Z 28026G31KT 08/M07 A3001 RMK A01 T00841066  RH  034%=      5-min Rain = 0
KMC4 231457Z 27024KT 08/M07 A3001 RMK A01 T00841066  RH  034%=      5-min Rain = 0
KMC4 231458Z 28022G31KT 09/M07 A3001 RMK A01 T00851065  RH  034%=      5-min Rain = 0
KMC4 231459Z 28024KT 09/M07 A3001 RMK A01 T00851067  RH  033%=      5-min Rain = 0
KMC4 231500Z 28023G28KT 09/M07 A3001 RMK A01 T00861067  RH  033%=      5-min Rain = 0
KMC4 231501Z 28022G27KT 09/M07 A3001 RMK A01 T00861066  RH  033%=      5-min Rain = 0
KMC4 231502Z 27022G29KT 09/M07 A3001 RMK A01 T00871066  RH  033%=      5-min Rain = 0
KMC4 231503Z 28026G32KT 09/M07 A3001 RMK A01 T00871067  RH  033%=      5-min Rain = 0
KMC4 231504Z 27025G33KT 09/M07 A30 RMK A01 T00881069  RH  032%=      5-min Rain = 0
KMC4 231505Z 28021KT 09/M07 A3001 RMK A01 T00881069  RH  032%=      5-min Rain = 0
KMC4 231506Z 27023G28KT 09/M07 A3001 RMK A01 T00891068  RH  032%=      5-min Rain = 0
KMC4 231507Z 27021G26KT 09/M07 A3002 RMK A01 T00891069  RH  032%=      5-min Rain = 0
KMC4 231508Z 28019KT 09/M07 A3002 RMK A01 T00891067  RH  032%=      5-min Rain = 0
KMC4 231509Z 28018KT 09/M07 A3002 RMK A01 T00911066  RH  032%=      5-min Rain = 0
KMC4 231510Z 28020G26KT 09/M07 A3002 RMK A01 T00911067  RH  032%=      5-min Rain = 0
KMC4 231511Z 27019G24KT 09/M07 A3002 RMK A01 T00911067  RH  032%=      5-min Rain = 0
KMC4 231512Z 27023KT 09/M07 A3002 RMK A01 T00921067  RH  032%=      5-min Rain = 0
KMC4 231513Z 27024G29KT 09/M07 A3002 RMK A01 T00911069  RH  032%=      5-min Rain = 0
KMC4 231514Z 27024G29KT 09/M07 A3002 RMK A01 T00911069  RH  032%=      5-min Rain = 0
KMC4 231515Z 27022G28KT 09/M07 A3003 RMK A01 T00911069  RH  032%=      5-min Rain = 0
KMC4 231516Z 27026KT 09/M07 A3003 RMK A01 T00911069  RH  032%=      5-min Rain = 0
KMC4 231517Z 27024KT 09/M07 A3003 RMK A01 T00911070  RH  031%=      5-min Rain = 0
KMC4 231518Z 27025KT 09/M07 A3003 RMK A01 T00901070  RH  031%=      5-min Rain = 0
KMC4 231519Z 27024KT 09/M07 A3003 RMK A01 T00911071  RH  031%=      5-min Rain = 0
KMC4 231520Z 27021KT 09/M07 A3003 RMK A01 T00921070  RH  031%=      5-min Rain = 0
KMC4 231521Z 27023KT 09/M07 A3003 RMK A01 T00921070  RH  031%=      5-min Rain = 0
KMC4 231522Z 27025G30KT 09/M07 A3003 RMK A01 T00931070  RH  031%=      5-min Rain = 0
KMC4 231523Z 27024KT 09/M07 A3003 RMK A01 T00931071  RH  031%=      5-min Rain = 0
KMC4 231524Z 27025G32KT 09/M07 A3003 RMK A01 T00931072  RH  030%=      5-min Rain = 0
KMC4 231525Z 27025G30KT 09/M07 A3003 RMK A01 T00931074  RH  030%=      5-min Rain = 0
KMC4 231526Z 27025KT 09/M07 A3003 RMK A01 T00931073  RH  030%=      5-min Rain = 0
KMC4 231527Z 27024KT 09/M07 A3003 RMK A01 T00921073  RH  030%=      5-min Rain = 0
KMC4 231528Z 27024G30KT 09/M07 A3003 RMK A01 T00931073  RH  030%=      5-min Rain = 0
KMC4 231529Z 28025KT 09/M07 A3003 RMK A01 T00931073  RH  030%=      5-min Rain = 0
KMC4 231530Z 27023KT 09/M07 A3003 RMK A01 T00941073  RH  030%=      5-min Rain = 0
KMC4 231531Z 27021KT 10/M07 A3004 RMK A01 T00951072  RH  030%=      5-min Rain = 0
KMC4 231532Z 28025G31KT 10/M07 A3004 RMK A01 T00961072  RH  030%=      5-min Rain = 0
KMC4 231533Z 27027KT 10/M07 A3003 RMK A01 T00961074  RH  029%=      5-min Rain = 0
KMC4 231534Z 27022KT 10/M07 A3004 RMK A01 T00961074  RH  029%=      5-min Rain = 0
KMC4 231535Z 27024KT 10/M07 A3004 RMK A01 T00961073  RH  030%=      5-min Rain = 0
KMC4 231536Z 27026KT 10/M07 A3003 RMK A01 T00961074  RH  029%=      5-min Rain = 0
KMC4 231537Z 27023KT 10/M07 A3004 RMK A01 T00961074  RH  029%=      5-min Rain = 0
KMC4 231538Z 27022KT 10/M07 A3004 RMK A01 T00971074  RH  029%=      5-min Rain = 0
KMC4 231539Z 27024G31KT 10/M07 A3004 RMK A01 T00981074  RH  029%=      5-min Rain = 0
KMC4 231540Z 27024G29KT 10/M08 A3004 RMK A01 T00981075  RH  029%=      5-min Rain = 0
KMC4 231541Z 28024G29KT 10/M07 A3004 RMK A01 T00981074  RH  029%=      5-min Rain = 0
KMC4 231542Z 28027KT 10/M08 A3004 RMK A01 T00981075  RH  029%=      5-min Rain = 0
KMC4 231543Z 27027KT 10/M08 A3004 RMK A01 T00991075  RH  029%=      5-min Rain = 0
KMC4 231544Z 28025KT 10/M08 A3004 RMK A01 T00991076  RH  028%=      5-min Rain = 0
KMC4 231545Z 27026KT 10/M08 A3004 RMK A01 T00991075  RH  028%=      5-min Rain = 0
KMC4 231546Z 27030KT 10/M08 A3004 RMK A01 T00991077  RH  028%=      5-min Rain = 0
KMC4 231547Z 27027G32KT 10/M08 A3004 RMK A01 T00991079  RH  028%=      5-min Rain = 0
KMC4 231548Z 27024G29KT 10/M08 A3004 RMK A01 T00991077  RH  028%=      5-min Rain = 0
KMC4 231549Z 27020KT 10/M08 A3004 RMK A01 T01001076  RH  028%=      5-min Rain = 0
KMC4 231550Z 26024KT 10/M08 A3004 RMK A01 T01001075  RH  028%=      5-min Rain = 0
KMC4 231551Z 26025G31KT 10/M08 A3003 RMK A01 T01011076  RH  028%=      5-min Rain = 0
KMC4 231552Z 26027G34KT 10/M08 A3003 RMK A01 T01011078  RH  028%=      5-min Rain = 0
KMC4 231553Z 27025G32KT 10/M08 A3003 RMK A01 T01011079  RH  028%=      5-min Rain = 0
KMC4 231554Z 26026KT 10/M08 A3003 RMK A01 T01011080  RH  027%=      5-min Rain = 0
KMC4 231555Z 27022G29KT 10/M08 A3003 RMK A01 T01021079  RH  027%=      5-min Rain = 0
KMC4 231556Z 27025G30KT 10/M08 A3003 RMK A01 T01021079  RH  027%=      5-min Rain = 0
KMC4 231557Z 27025KT 10/M08 A3003 RMK A01 T01021078  RH  027%=      5-min Rain = 0
KMC4 231558Z 26028G36KT 10/M08 A3003 RMK A01 T01021079  RH  027%=      5-min Rain = 0
KMC4 231559Z 27023G29KT 10/M08 A3003 RMK A01 T01021079  RH  027%=      5-min Rain = 0
KMC4 231600Z 26025G30KT 10/M08 A3003 RMK A01 T01031080  RH  027%=      5-min Rain = 0
KMC4 231601Z 26025KT 10/M08 A3003 RMK A01 T01031081  RH  027%=      5-min Rain = 0
KMC4 231602Z 26024KT 10/M08 A3003 RMK A01 T01031081  RH  027%=      5-min Rain = 0
KMC4 231603Z 27023G28KT 10/M08 A3003 RMK A01 T01031079  RH  027%=      5-min Rain = 0
KMC4 231604Z 27021G26KT 11/M08 A3004 RMK A01 T01051077  RH  027%=      5-min Rain = 0
KMC4 231605Z 26021G27KT 11/M07 A3004 RMK A01 T01081074  RH  027%=      5-min Rain = 0
KMC4 231606Z 26023G32KT 11/M08 A3004 RMK A01 T01081076  RH  027%=      5-min Rain = 0
KMC4 231607Z 27027KT 11/M08 A3003 RMK A01 T01091080  RH  026%=      5-min Rain = 0
KMC4 231608Z 27024KT 11/M08 A3003 RMK A01 T01071082  RH  026%=      5-min Rain = 0
KMC4 231609Z 28028KT 11/M08 A3004 RMK A01 T01071081  RH  026%=      5-min Rain = 0
KMC4 231610Z 27024G30KT 11/M08 A3003 RMK A01 T01071081  RH  026%=      5-min Rain = 0
KMC4 231611Z 27025G33KT 11/M08 A3003 RMK A01 T01081081  RH  026%=      5-min Rain = 0
KMC4 231612Z 27026KT 11/M08 A3003 RMK A01 T01091082  RH  025%=      5-min Rain = 0
KMC4 231613Z 27023KT 11/M08 A3003 RMK A01 T01091081  RH  026%=      5-min Rain = 0
KMC4 231614Z 27024G29KT 11/M08 A3003 RMK A01 T01101080  RH  025%=      5-min Rain = 0
KMC4 231615Z 26023G28KT 11/M08 A3003 RMK A01 T01111081  RH  025%=      5-min Rain = 0
KMC4 231616Z 27018G23KT 11/M08 A3003 RMK A01 T01121079  RH  025%=      5-min Rain = 0
KMC4 231617Z 26020G26KT 12/M08 A3003 RMK A01 T01151076  RH  025%=      5-min Rain = 0
KMC4 231618Z 26025G30KT 12/M08 A3003 RMK A01 T01171081  RH  024%=      5-min Rain = 0
KMC4 231619Z 27024G33KT 12/M08 A3003 RMK A01 T01151084  RH  024%=      5-min Rain = 0
KMC4 231620Z 26023G28KT 12/M08 A3003 RMK A01 T01151083  RH  024%=      5-min Rain = 0
KMC4 231621Z 26026G34KT 12/M08 A3003 RMK A01 T01151084  RH  024%=      5-min Rain = 0
KMC4 231622Z 26029KT 12/M09 A3003 RMK A01 T01151087  RH  023%=      5-min Rain = 0
KMC4 231623Z 27027G36KT 11/M09 A3003 RMK A01 T01141089  RH  023%=      5-min Rain = 0
KMC4 231624Z 27024G33KT 12/M09 A3003 RMK A01 T01151087  RH  023%=      5-min Rain = 0
KMC4 231625Z 27028KT 12/M09 A3003 RMK A01 T01171088  RH  023%=      5-min Rain = 0
KMC4 231626Z 27028G33KT 12/M09 A3003 RMK A01 T01161089  RH  023%=      5-min Rain = 0
KMC4 231627Z 27022KT 12/M09 A3004 RMK A01 T01151089  RH  023%=      5-min Rain = 0
KMC4 231628Z 27020G28KT 12/M09 A3004 RMK A01 T01181086  RH  023%=      5-min Rain = 0
KMC4 231629Z 27023G28KT 12/M08 A3004 RMK A01 T01211084  RH  023%=      5-min Rain = 0
KMC4 231630Z 27027G33KT 12/M09 A3004 RMK A01 T01221089  RH  022%=      5-min Rain = 0
KMC4 231631Z 27023KT 12/M09 A3004 RMK A01 T01211091  RH  022%=      5-min Rain = 0
KMC4 231632Z 27021G28KT 12/M09 A3004 RMK A01 T01221087  RH  022%=      5-min Rain = 0
KMC4 231633Z 28028KT 12/M09 A3003 RMK A01 T01221089  RH  022%=      5-min Rain = 0
KMC4 231634Z 27024KT 12/M09 A3004 RMK A01 T01201092  RH  022%=      5-min Rain = 0
KMC4 231635Z 26022G29KT 12/M09 A3004 RMK A01 T01211090  RH  022%=      5-min Rain = 0
KMC4 231636Z 26024G33KT 12/M09 A3004 RMK A01 T01221089  RH  022%=      5-min Rain = 0
KMC4 231637Z 27025G30KT 12/M09 A3004 RMK A01 T01241089  RH  022%=      5-min Rain = 0
KMC4 231638Z 26025G32KT 12/M09 A3004 RMK A01 T01241091  RH  021%=      5-min Rain = 0
KMC4 231639Z 26026G31KT 12/M09 A3004 RMK A01 T01241094  RH  021%=      5-min Rain = 0
KMC4 231640Z 26026KT 12/M10 A3004 RMK A01 T01231095  RH  021%=      5-min Rain = 0
KMC4 231641Z 27023KT 12/M09 A3004 RMK A01 T01241094  RH  021%=      5-min Rain = 0
KMC4 231642Z 27022G28KT 13/M09 A3004 RMK A01 T01251090  RH  021%=      5-min Rain = 0
KMC4 231643Z 27024G30KT 13/M09 A3004 RMK A01 T01271093  RH  021%=      5-min Rain = 0
KMC4 231644Z 27024KT 13/M09 A3004 RMK A01 T01261093  RH  021%=      5-min Rain = 0
KMC4 231645Z 26025G31KT 13/M09 A3004 RMK A01 T01271093  RH  021%=      5-min Rain = 0
KMC4 231646Z 27025G36KT 13/M10 A3004 RMK A01 T01261096  RH  020%=      5-min Rain = 0
KMC4 231647Z 27024KT 13/M10 A3004 RMK A01 T01261095  RH  020%=      5-min Rain = 0
KMC4 231648Z 27025G30KT 13/M10 A3004 RMK A01 T01271095  RH  020%=      5-min Rain = 0
KMC4 231649Z 27028G33KT 13/M10 A3004 RMK A01 T01281097  RH  020%=      5-min Rain = 0
KMC4 231650Z 27031KT 13/M10 A3004 RMK A01 T01271102  RH  019%=      5-min Rain = 0
KMC4 231651Z 28028KT 13/M10 A3004 RMK A01 T01261102  RH  019%=      5-min Rain = 0
KMC4 231652Z 28031G36KT 13/M10 A3004 RMK A01 T01261102  RH  019%=      5-min Rain = 0
KMC4 231653Z 27023G30KT 13/M10 A3004 RMK A01 T01271104  RH  019%=      5-min Rain = 0
KMC4 231654Z 28021KT 13/M10 A3004 RMK A01 T01281099  RH  020%=      5-min Rain = 0
KMC4 231655Z 28026G31KT 13/M10 A3004 RMK A01 T01311097  RH  019%=      5-min Rain = 0
KMC4 231656Z 28023G30KT 13/M10 A3004 RMK A01 T01311098  RH  019%=      5-min Rain = 0
KMC4 231657Z 28024G29KT 13/M10 A3005 RMK A01 T01311098  RH  019%=      5-min Rain = 0
KMC4 231658Z 28023G31KT 13/M10 A3005 RMK A01 T01321097  RH  019%=      5-min Rain = 0
KMC4 231659Z 29025G31KT 13/M10 A3005 RMK A01 T01321099  RH  019%=      5-min Rain = 0
KMC4 231700Z 28024G31KT 13/M10 A3005 RMK A01 T01321099  RH  019%=      5-min Rain = 0
KMC4 231701Z 28028G33KT 13/M10 A3005 RMK A01 T01321101  RH  019%=      5-min Rain = 0
KMC4 231702Z 28028KT 13/M10 A3005 RMK A01 T01301103  RH  019%=      5-min Rain = 0
KMC4 231703Z 29026KT 13/M10 A3005 RMK A01 T01301104  RH  019%=      5-min Rain = 0
KMC4 231704Z 28023KT 13/M10 A3005 RMK A01 T01301103  RH  019%=      5-min Rain = 0
KMC4 231705Z 27022KT 13/M10 A3005 RMK A01 T01311100  RH  019%=      5-min Rain = 0
KMC4 231706Z 28025KT 13/M10 A3005 RMK A01 T01321100  RH  019%=      5-min Rain = 0
KMC4 231707Z 27023KT 13/M10 A3005 RMK A01 T01311100  RH  019%=      5-min Rain = 0
KMC4 231708Z 28023G28KT 13/M10 A3005 RMK A01 T01321098  RH  019%=      5-min Rain = 0
KMC4 231709Z 27024G29KT 13/M10 A3005 RMK A01 T01341098  RH  019%=      5-min Rain = 0
KMC4 231710Z 28024G29KT 13/M10 A3005 RMK A01 T01341102  RH  018%=      5-min Rain = 0
KMC4 231711Z 29027G32KT 13/M10 A3005 RMK A01 T01331101  RH  019%=      5-min Rain = 0
KMC4 231712Z 28023G28KT 13/M10 A3005 RMK A01 T01331102  RH  019%=      5-min Rain = 0
KMC4 231713Z 28025G30KT 13/M10 A3005 RMK A01 T01331100  RH  019%=      5-min Rain = 0
KMC4 231714Z 28026KT 13/M10 A3005 RMK A01 T01341099  RH  019%=      5-min Rain = 0
KMC4 231715Z 28025KT 13/M10 A3005 RMK A01 T01341101  RH  019%=      5-min Rain = 0
KMC4 231716Z 27026G31KT 13/M10 A3005 RMK A01 T01341101  RH  019%=      5-min Rain = 0
KMC4 231717Z 27023G28KT 13/M10 A3005 RMK A01 T01331101  RH  019%=      5-min Rain = 0
KMC4 231718Z 26023KT 13/M10 A3005 RMK A01 T01331099  RH  019%=      5-min Rain = 0
KMC4 231719Z 27026KT 13/M10 A3005 RMK A01 T01341100  RH  019%=      5-min Rain = 0
KMC4 231720Z 27023KT 13/M10 A3005 RMK A01 T01331103  RH  018%=      5-min Rain = 0
KMC4 231721Z 27022KT 14/M10 A3005 RMK A01 T01351101  RH  018%=      5-min Rain = 0
KMC4 231722Z 27021G27KT 14/M10 A3005 RMK A01 T01371100  RH  018%=      5-min Rain = 0
KMC4 231723Z 27020KT 14/M10 A3005 RMK A01 T01381099  RH  018%=      5-min Rain = 0
KMC4 231724Z 27020G25KT 14/M10 A3005 RMK A01 T01381099  RH  018%=      5-min Rain = 0
KMC4 231725Z 28024KT 14/M10 A3004 RMK A01 T01381098  RH  018%=      5-min Rain = 0
KMC4 231726Z 26020KT 14/M10 A3005 RMK A01 T01381098  RH  018%=      5-min Rain = 0
KMC4 231727Z 27024G30KT 14/M10 A3004 RMK A01 T01411097  RH  018%=      5-min Rain = 0
KMC4 231728Z 28025KT 14/M10 A3004 RMK A01 T01421104  RH  017%=      5-min Rain = 0
KMC4 231729Z 28024G32KT 14/M11 A3004 RMK A01 T01421105  RH  017%=      5-min Rain = 0
KMC4 231730Z 28023KT 14/M11 A3004 RMK A01 T01421106  RH  017%=      5-min Rain = 0
KMC4 231731Z 28023G34KT 14/M10 A3004 RMK A01 T01441104  RH  017%=      5-min Rain = 0
KMC4 231732Z 28023G35KT 15/M10 A3005 RMK A01 T01451102  RH  017%=      5-min Rain = 0
KMC4 231733Z 28030KT 14/M11 A3004 RMK A01 T01431110  RH  016%=      5-min Rain = 0
KMC4 231734Z 27027KT 14/M12 A3004 RMK A01 T01401116  RH  016%=      5-min Rain = 0
KMC4 231735Z 27024KT 14/M12 A3005 RMK A01 T01391115  RH  016%=      5-min Rain = 0
KMC4 231736Z 28020KT 14/M11 A3005 RMK A01 T01411106  RH  017%=      5-min Rain = 0
KMC4 231737Z 27026G33KT 15/M10 A3005 RMK A01 T01461101  RH  017%=      5-min Rain = 0
KMC4 231738Z 27028G34KT 15/M11 A3004 RMK A01 T01461109  RH  016%=      5-min Rain = 0
KMC4 231739Z 27027G33KT 14/M11 A3004 RMK A01 T01421113  RH  016%=      5-min Rain = 0
KMC4 231740Z 27026G32KT 14/M11 A3005 RMK A01 T01421110  RH  016%=      5-min Rain = 0
KMC4 231741Z 27026G32KT 14/M11 A3004 RMK A01 T01431110  RH  016%=      5-min Rain = 0
KMC4 231742Z 27026G32KT 14/M11 A3004 RMK A01 T01441111  RH  016%=      5-min Rain = 0
KMC4 231743Z 27027KT 15/M11 A3004 RMK A01 T01451110  RH  016%=      5-min Rain = 0
KMC4 231744Z 27027KT 14/M11 A3004 RMK A01 T01441110  RH  016%=      5-min Rain = 0
KMC4 231745Z 28031KT 14/M11 A3004 RMK A01 T01441110  RH  016%=      5-min Rain = 0
KMC4 231746Z 29026G35KT 14/M11 A3004 RMK A01 T01431110  RH  016%=      5-min Rain = 0
KMC4 231747Z 28023G28KT 14/M11 A3005 RMK A01 T01431108  RH  017%=      5-min Rain = 0
KMC4 231748Z 29025KT 14/M11 A3004 RMK A01 T01431108  RH  016%=      5-min Rain = 0
KMC4 231749Z 28026G33KT 15/M11 A3004 RMK A01 T01451108  RH  016%=      5-min Rain = 0
KMC4 231750Z 27031KT 15/M11 A3004 RMK A01 T01451112  RH  016%=      5-min Rain = 0
KMC4 231751Z 27028G35KT 14/M12 A3004 RMK A01 T01421116  RH  016%=      5-min Rain = 0
KMC4 231752Z 27031KT 14/M12 A3004 RMK A01 T01421117  RH  015%=      5-min Rain = 0
KMC4 231753Z 28032G37KT 14/M12 A3004 RMK A01 T01421120  RH  015%=      5-min Rain = 0
KMC4 231754Z 28033G41KT 14/M12 A3004 RMK A01 T01441117  RH  015%=      5-min Rain = 0
KMC4 231755Z 28033G38KT 14/M12 A3004 RMK A01 T01431120  RH  015%=      5-min Rain = 0
KMC4 231756Z 28029G35KT 14/M12 A3005 RMK A01 T01421119  RH  015%=      5-min Rain = 0
KMC4 231757Z 28030G37KT 14/M12 A3004 RMK A01 T01411116  RH  016%=      5-min Rain = 0
KMC4 231758Z 28026G31KT 14/M12 A3004 RMK A01 T01421115  RH  016%=      5-min Rain = 0
KMC4 231759Z 27028G34KT 14/M11 A3005 RMK A01 T01441111  RH  016%=      5-min Rain = 0
KMC4 231800Z 28028G34KT 15/M11 A3004 RMK A01 T01451109  RH  016%=      5-min Rain = 0
KMC4 231801Z 28028G33KT 14/M11 A3004 RMK A01 T01441111  RH  016%=      5-min Rain = 0
KMC4 231802Z 28024G34KT 14/M11 A3005 RMK A01 T01441109  RH  016%=      5-min Rain = 0
KMC4 231803Z 28027G33KT 15/M11 A3005 RMK A01 T01471107  RH  016%=      5-min Rain = 0
KMC4 231804Z 28022KT 15/M11 A3005 RMK A01 T01461107  RH  016%=      5-min Rain = 0
KMC4 231805Z 27028G34KT 15/M11 A3005 RMK A01 T01481107  RH  016%=      5-min Rain = 0
KMC4 231806Z 27029G34KT 15/M11 A3005 RMK A01 T01471110  RH  016%=      5-min Rain = 0
KMC4 231807Z 27030G38KT 15/M11 A3005 RMK A01 T01451111  RH  016%=      5-min Rain = 0
KMC4 231808Z 27024KT 15/M11 A3005 RMK A01 T01451108  RH  016%=      5-min Rain = 0
KMC4 231809Z 27024G33KT 15/M11 A3005 RMK A01 T01461105  RH  017%=      5-min Rain = 0
KMC4 231810Z 27026KT 15/M11 A3005 RMK A01 T01481106  RH  016%=      5-min Rain = 0
KMC4 231811Z 27027KT 15/M11 A3005 RMK A01 T01451112  RH  016%=      5-min Rain = 0
KMC4 231812Z 27026G32KT 15/M11 A3005 RMK A01 T01451112  RH  016%=      5-min Rain = 0
KMC4 231813Z 27027KT 15/M11 A3005 RMK A01 T01461112  RH  016%=      5-min Rain = 0
KMC4 231814Z 28024G29KT 15/M11 A3005 RMK A01 T01461113  RH  016%=      5-min Rain = 0
KMC4 231815Z 28025G32KT 15/M11 A3006 RMK A01 T01461110  RH  016%=      5-min Rain = 0
KMC4 231816Z 28025G30KT 15/M11 A3006 RMK A01 T01461109  RH  016%=      5-min Rain = 0
KMC4 231817Z 27028G36KT 15/M11 A3005 RMK A01 T01461111  RH  016%=      5-min Rain = 0
KMC4 231818Z 27029KT 15/M11 A3005 RMK A01 T01461113  RH  016%=      5-min Rain = 0
KMC4 231819Z 27028G35KT 15/M11 A3005 RMK A01 T01451114  RH  016%=      5-min Rain = 0
KMC4 231820Z 26029G35KT 15/M12 A3005 RMK A01 T01451115  RH  015%=      5-min Rain = 0
KMC4 231821Z 26028KT 15/M12 A3005 RMK A01 T01451115  RH  015%=      5-min Rain = 0
KMC4 231822Z 27024G29KT 15/M11 A3005 RMK A01 T01451113  RH  016%=      5-min Rain = 0
KMC4 231823Z 27028KT 15/M11 A3004 RMK A01 T01451112  RH  016%=      5-min Rain = 0
KMC4 231824Z 27025G30KT 15/M11 A3005 RMK A01 T01451109  RH  016%=      5-min Rain = 0
KMC4 231825Z 26023G29KT 15/M11 A3005 RMK A01 T01461109  RH  016%=      5-min Rain = 0
KMC4 231826Z 27022KT 15/M11 A3004 RMK A01 T01461107  RH  016%=      5-min Rain = 0
KMC4 231827Z 27025G32KT 15/M11 A3004 RMK A01 T01471107  RH  016%=      5-min Rain = 0
KMC4 231828Z 27024G30KT 15/M11 A3004 RMK A01 T01481108  RH  016%=      5-min Rain = 0
KMC4 231829Z 27024KT 15/M10 A3005 RMK A01 T01501104  RH  016%=      5-min Rain = 0
KMC4 231830Z 28024KT 15/M11 A3004 RMK A01 T01531105  RH  016%=      5-min Rain = 0
KMC4 231831Z 28027G35KT 15/M11 A3005 RMK A01 T01521107  RH  016%=      5-min Rain = 0
KMC4 231832Z 27030G35KT 15/M12 A3004 RMK A01 T01511116  RH  015%=      5-min Rain = 0
KMC4 231833Z 27029KT 15/M12 A3004 RMK A01 T01491119  RH  015%=      5-min Rain = 0
KMC4 231834Z 27024KT 15/M11 A3004 RMK A01 T01481113  RH  015%=      5-min Rain = 0
KMC4 231835Z 29025G32KT 15/M11 A3005 RMK A01 T01491109  RH  016%=      5-min Rain = 0
KMC4 231836Z 28027G34KT 15/M11 A3004 RMK A01 T01501110  RH  016%=      5-min Rain = 0
KMC4 231837Z 28026G31KT 15/M11 A3004 RMK A01 T01491112  RH  015%=      5-min Rain = 0
KMC4 231838Z 28024KT 15/M11 A3004 RMK A01 T01491112  RH  015%=      5-min Rain = 0
KMC4 231839Z 28027G32KT 15/M11 A3004 RMK A01 T01511109  RH  016%=      5-min Rain = 0
KMC4 231840Z 28026G34KT 15/M11 A3004 RMK A01 T01521107  RH  016%=      5-min Rain = 0
KMC4 231841Z 29024G29KT 15/M11 A3004 RMK A01 T01511108  RH  016%=      5-min Rain = 0
KMC4 231842Z 28023G28KT 15/M11 A3004 RMK A01 T01501108  RH  016%=      5-min Rain = 0
KMC4 231843Z 28024G30KT 15/M11 A3004 RMK A01 T01511106  RH  016%=      5-min Rain = 0
KMC4 231844Z 28026G31KT 15/M11 A3004 RMK A01 T01531108  RH  016%=      5-min Rain = 0
KMC4 231845Z 27027G36KT 15/M11 A3003 RMK A01 T01521111  RH  015%=      5-min Rain = 0
KMC4 231846Z 27027G32KT 15/M11 A3003 RMK A01 T01521110  RH  015%=      5-min Rain = 0
KMC4 231847Z 27026KT 15/M11 A3003 RMK A01 T01521109  RH  016%=      5-min Rain = 0
KMC4 231848Z 28026G31KT 15/M11 A3004 RMK A01 T01521108  RH  016%=      5-min Rain = 0
KMC4 231849Z 28022KT 15/M11 A3004 RMK A01 T01531106  RH  016%=      5-min Rain = 0
KMC4 231850Z 28032KT 15/M11 A3003 RMK A01 T01541108  RH  015%=      5-min Rain = 0
KMC4 231851Z 27030KT 15/M11 A3003 RMK A01 T01511114  RH  015%=      5-min Rain = 0
KMC4 231852Z 27028G33KT 15/M11 A3003 RMK A01 T01501111  RH  015%=      5-min Rain = 0
KMC4 231853Z 27025G30KT 15/M11 A3003 RMK A01 T01521108  RH  016%=      5-min Rain = 0
KMC4 231854Z 27024KT 15/M11 A3003 RMK A01 T01521107  RH  016%=      5-min Rain = 0
KMC4 231855Z 27022KT 15/M11 A3003 RMK A01 T01511106  RH  016%=      5-min Rain = 0
KMC4 231856Z 28020G25KT 15/M10 A3003 RMK A01 T01541100  RH  016%=      5-min Rain = 0
KMC4 231857Z 28021G26KT 16/M10 A3003 RMK A01 T01591097  RH  016%=      5-min Rain = 0
KMC4 231858Z 27022G28KT 16/M10 A3003 RMK A01 T01591101  RH  016%=      5-min Rain = 0
KMC4 231859Z 28028G33KT 16/M11 A3002 RMK A01 T01581107  RH  015%=      5-min Rain = 0
KMC4 231900Z 29026G32KT 16/M12 A3003 RMK A01 T01551115  RH  015%=      5-min Rain = 0
KMC4 231901Z 28024G29KT 15/M11 A3003 RMK A01 T01541114  RH  015%=      5-min Rain = 0
KMC4 231902Z 28021G26KT 16/M11 A3003 RMK A01 T01551106  RH  015%=      5-min Rain = 0
KMC4 231903Z 28022KT 16/M11 A3003 RMK A01 T01571105  RH  015%=      5-min Rain = 0
KMC4 231904Z 29022G30KT 16/M11 A3003 RMK A01 T01581105  RH  015%=      5-min Rain = 0
KMC4 231905Z 29022KT 16/M10 A3003 RMK A01 T01581103  RH  016%=      5-min Rain = 0
KMC4 231906Z 28024G32KT 16/M10 A3003 RMK A01 T01601103  RH  015%=      5-min Rain = 0
KMC4 231907Z 29024G30KT 16/M11 A3003 RMK A01 T01601108  RH  015%=      5-min Rain = 0
KMC4 231908Z 28023KT 16/M11 A3002 RMK A01 T01571107  RH  015%=      5-min Rain = 0
KMC4 231909Z 28027G35KT 16/M11 A3002 RMK A01 T01551106  RH  015%=      5-min Rain = 0
KMC4 231910Z 27026G31KT 16/M11 A3002 RMK A01 T01561112  RH  015%=      5-min Rain = 0
KMC4 231911Z 27029G35KT 16/M11 A3002 RMK A01 T01591114  RH  014%=      5-min Rain = 0
KMC4 231912Z 28028G33KT 16/M12 A3002 RMK A01 T01591116  RH  014%=      5-min Rain = 0
KMC4 231913Z 28027KT 16/M12 A3002 RMK A01 T01571116  RH  014%=      5-min Rain = 0
KMC4 231914Z 28026G33KT 16/M12 A3002 RMK A01 T01551115  RH  014%=      5-min Rain = 0
KMC4 231915Z 28023G29KT 16/M11 A3002 RMK A01 T01551111  RH  015%=      5-min Rain = 0
KMC4 231916Z 28026G31KT 16/M11 A3002 RMK A01 T01561108  RH  015%=      5-min Rain = 0
KMC4 231917Z 28025G31KT 16/M11 A3002 RMK A01 T01561113  RH  015%=      5-min Rain = 0
KMC4 231918Z 28023KT 16/M11 A3002 RMK A01 T01551110  RH  015%=      5-min Rain = 0
KMC4 231919Z 28022KT 16/M11 A3003 RMK A01 T01571109  RH  015%=      5-min Rain = 0
KMC4 231920Z 28026G33KT 16/M11 A3002 RMK A01 T01581109  RH  015%=      5-min Rain = 0
KMC4 231921Z 28027KT 16/M11 A3002 RMK A01 T01551112  RH  015%=      5-min Rain = 0
KMC4 231922Z 27025G32KT 16/M11 A3002 RMK A01 T01551108  RH  015%=      5-min Rain = 0
KMC4 231923Z 28029KT 16/M11 A3002 RMK A01 T01571107  RH  015%=      5-min Rain = 0
KMC4 231924Z 28025G31KT 16/M11 A3003 RMK A01 T01571107  RH  015%=      5-min Rain = 0
KMC4 231925Z 29025G30KT 16/M11 A3003 RMK A01 T01581107  RH  015%=      5-min Rain = 0
KMC4 231926Z 28024G34KT 16/M11 A3003 RMK A01 T01571109  RH  015%=      5-min Rain = 0
KMC4 231927Z 28031KT 16/M11 A3002 RMK A01 T01601108  RH  015%=      5-min Rain = 0
KMC4 231928Z 29026G31KT 16/M11 A3002 RMK A01 T01581109  RH  015%=      5-min Rain = 0
KMC4 231929Z 29025G30KT 16/M11 A3003 RMK A01 T01571106  RH  015%=      5-min Rain = 0
KMC4 231930Z 28020G25KT 16/M10 A3003 RMK A01 T01561103  RH  016%=      5-min Rain = 0
KMC4 231931Z 28025KT 16/M10 A3002 RMK A01 T01581100  RH  016%=      5-min Rain = 0
KMC4 231932Z 28024G29KT 16/M10 A3002 RMK A01 T01591102  RH  016%=      5-min Rain = 0
KMC4 231933Z 28020G27KT 16/M10 A3003 RMK A01 T01601100  RH  016%=      5-min Rain = 0
KMC4 231934Z 26030G40KT 16/M11 A3002 RMK A01 T01621106  RH  015%=      5-min Rain = 0
KMC4 231935Z 28030G35KT 16/M12 A3002 RMK A01 T01601116  RH  014%=      5-min Rain = 0
KMC4 231936Z 28023G28KT 16/M12 A3003 RMK A01 T01591117  RH  014%=      5-min Rain = 0
KMC4 231937Z 28027G32KT 16/M11 A3003 RMK A01 T01591113  RH  014%=      5-min Rain = 0
KMC4 231938Z 28021G28KT 16/M11 A3003 RMK A01 T01601110  RH  015%=      5-min Rain = 0
KMC4 231939Z 28023G30KT 16/M11 A3003 RMK A01 T01601108  RH  015%=      5-min Rain = 0
KMC4 231940Z 28022KT 16/M11 A3003 RMK A01 T01601108  RH  015%=      5-min Rain = 0
KMC4 231941Z 29024KT 16/M11 A3003 RMK A01 T01591108  RH  015%=      5-min Rain = 0
KMC4 231942Z 28022KT 16/M11 A3003 RMK A01 T01571107  RH  015%=      5-min Rain = 0
KMC4 231943Z 27020KT 16/M10 A3003 RMK A01 T01581102  RH  016%=      5-min Rain = 0
KMC4 231944Z 29019KT 16/M10 A3003 RMK A01 T01601101  RH  016%=      5-min Rain = 0
KMC4 231945Z 28024G33KT 16/M10 A3003 RMK A01 T01601100  RH  016%=      5-min Rain = 0
KMC4 231946Z 28025G30KT 16/M10 A3003 RMK A01 T01621104  RH  015%=      5-min Rain = 0
KMC4 231947Z 29019G24KT 16/M10 A3003 RMK A01 T01631102  RH  015%=      5-min Rain = 0
KMC4 231948Z 29023KT 17/M10 A3003 RMK A01 T01651103  RH  015%=      5-min Rain = 0
KMC4 231949Z 29020G30KT 16/M11 A3003 RMK A01 T01621105  RH  015%=      5-min Rain = 0
KMC4 231950Z 29025G30KT 16/M10 A3003 RMK A01 T01611104  RH  015%=      5-min Rain = 0
KMC4 231951Z 27022KT 16/M10 A3003 RMK A01 T01611103  RH  015%=      5-min Rain = 0
KMC4 231952Z 28024G30KT 16/M10 A3003 RMK A01 T01641099  RH  015%=      5-min Rain = 0
KMC4 231953Z 29025G30KT 16/M10 A3003 RMK A01 T01641103  RH  015%=      5-min Rain = 0
KMC4 231954Z 29020G26KT 16/M11 A3003 RMK A01 T01621105  RH  015%=      5-min Rain = 0
KMC4 231955Z 29021KT 16/M10 A3003 RMK A01 T01611104  RH  015%=      5-min Rain = 0
KMC4 231956Z 28023G29KT 16/M11 A3002 RMK A01 T01611109  RH  015%=      5-min Rain = 0
KMC4 231957Z 28026G32KT 16/M11 A3002 RMK A01 T01611113  RH  014%=      5-min Rain = 0
KMC4 231958Z 29027G32KT 16/M11 A3003 RMK A01 T01611113  RH  014%=      5-min Rain = 0
KMC4 231959Z 29022G27KT 16/M11 A3003 RMK A01 T01601112  RH  014%=      5-min Rain = 0
KMC4 232000Z 29020G25KT 16/M11 A3003 RMK A01 T01591110  RH  015%=      5-min Rain = 0
KMC4 232001Z 28024KT 16/M11 A3002 RMK A01 T01591105  RH  015%=      5-min Rain = 0
KMC4 232002Z 28022G27KT 16/M10 A3003 RMK A01 T01611101  RH  016%=      5-min Rain = 0
KMC4 232003Z 28022G30KT 16/M10 A3003 RMK A01 T01621099  RH  016%=      5-min Rain = 0
KMC4 232004Z 27027KT 16/M10 A3002 RMK A01 T01631099  RH  016%=      5-min Rain = 0
KMC4 232005Z 26026KT 16/M10 A3002 RMK A01 T01641101  RH  015%=      5-min Rain = 0
KMC4 232006Z 27024G29KT 16/M10 A3002 RMK A01 T01641103  RH  015%=      5-min Rain = 0
KMC4 232007Z 28021G26KT 17/M10 A3002 RMK A01 T01651100  RH  015%=      5-min Rain = 0
KMC4 232008Z 28027KT 17/M10 A3002 RMK A01 T01661103  RH  015%=      5-min Rain = 0
KMC4 232009Z 28027KT 17/M11 A3002 RMK A01 T01651109  RH  014%=      5-min Rain = 0
KMC4 232010Z 28024KT 16/M11 A3003 RMK A01 T01631112  RH  014%=      5-min Rain = 0
KMC4 232011Z 29022G29KT 16/M11 A3002 RMK A01 T01621110  RH  014%=      5-min Rain = 0
KMC4 232012Z 29022KT 16/M11 A3002 RMK A01 T01621105  RH  015%=      5-min Rain = 0
KMC4 232013Z 29021G29KT 16/M11 A3002 RMK A01 T01621106  RH  015%=      5-min Rain = 0
KMC4 232014Z 28024G29KT 16/M11 A3002 RMK A01 T01631105  RH  015%=      5-min Rain = 0
KMC4 232015Z 28027KT 16/M11 A3002 RMK A01 T01641105  RH  015%=      5-min Rain = 0
KMC4 232016Z 28025KT 16/M11 A3002 RMK A01 T01641110  RH  014%=      5-min Rain = 0
KMC4 232017Z 27022KT 16/M11 A3002 RMK A01 T01631110  RH  014%=      5-min Rain = 0
KMC4 232018Z 28019G24KT 16/M11 A3002 RMK A01 T01631106  RH  015%=      5-min Rain = 0
KMC4 232019Z 27024KT 16/M11 A3002 RMK A01 T01641105  RH  015%=      5-min Rain = 0
KMC4 232020Z 28025G30KT 16/M11 A3002 RMK A01 T01641107  RH  015%=      5-min Rain = 0
KMC4 232021Z 28020G26KT 16/M11 A3003 RMK A01 T01631112  RH  014%=      5-min Rain = 0
KMC4 232022Z 27019G24KT 16/M10 A3002 RMK A01 T01631104  RH  015%=      5-min Rain = 0
KMC4 232023Z 27022G28KT 17/M10 A3002 RMK A01 T01651103  RH  015%=      5-min Rain = 0
KMC4 232024Z 28023G31KT 16/M10 A3002 RMK A01 T01641102  RH  015%=      5-min Rain = 0
KMC4 232025Z 28024KT 17/M10 A3002 RMK A01 T01661100  RH  015%=      5-min Rain = 0
KMC4 232026Z 28022KT 17/M10 A3002 RMK A01 T01671104  RH  015%=      5-min Rain = 0
KMC4 232027Z 28020G25KT 17/M11 A3003 RMK A01 T01651107  RH  014%=      5-min Rain = 0
KMC4 232028Z 27023KT 17/M10 A3002 RMK A01 T01661104  RH  015%=      5-min Rain = 0
KMC4 232029Z 27022KT 17/M11 A3002 RMK A01 T01651110  RH  014%=      5-min Rain = 0
KMC4 232030Z 27023G31KT 16/M11 A3002 RMK A01 T01631110  RH  014%=      5-min Rain = 0
KMC4 232031Z 28025KT 16/M11 A3002 RMK A01 T01641108  RH  014%=      5-min Rain = 0
KMC4 232032Z 27022KT 17/M11 A3003 RMK A01 T01671107  RH  014%=      5-min Rain = 0
KMC4 232033Z 28020G25KT 17/M11 A3003 RMK A01 T01681111  RH  014%=      5-min Rain = 0
KMC4 232034Z 28022G27KT 17/M11 A3003 RMK A01 T01661111  RH  014%=      5-min Rain = 0
KMC4 232035Z 27021KT 16/M11 A3003 RMK A01 T01641109  RH  014%=      5-min Rain = 0
KMC4 232036Z 27023KT 16/M11 A3003 RMK A01 T01641109  RH  014%=      5-min Rain = 0
KMC4 232037Z 27023KT 16/M11 A3003 RMK A01 T01641108  RH  015%=      5-min Rain = 0
KMC4 232038Z 27023KT 16/M11 A3003 RMK A01 T01641106  RH  015%=      5-min Rain = 0
KMC4 232039Z 27023KT 17/M10 A3003 RMK A01 T01661104  RH  015%=      5-min Rain = 0
KMC4 232040Z 27021KT 17/M10 A3003 RMK A01 T01671104  RH  015%=      5-min Rain = 0
KMC4 232041Z 28023G29KT 17/M11 A3003 RMK A01 T01681105  RH  014%=      5-min Rain = 0
KMC4 232042Z 29023KT 17/M11 A3003 RMK A01 T01681106  RH  014%=      5-min Rain = 0
KMC4 232043Z 29020G26KT 17/M11 A3003 RMK A01 T01651114  RH  014%=      5-min Rain = 0
KMC4 232044Z 28017KT 16/M11 A3003 RMK A01 T01641114  RH  014%=      5-min Rain = 0
KMC4 232045Z 28016KT 17/M11 A3003 RMK A01 T01651112  RH  014%=      5-min Rain = 0
KMC4 232046Z 28020KT 17/M11 A3003 RMK A01 T01681105  RH  014%=      5-min Rain = 0
KMC4 232047Z 29022G27KT 17/M10 A3003 RMK A01 T01681103  RH  015%=      5-min Rain = 0
KMC4 232048Z 28023G28KT 17/M10 A3003 RMK A01 T01661103  RH  015%=      5-min Rain = 0
KMC4 232049Z 27024G30KT 17/M10 A3003 RMK A01 T01651101  RH  015%=      5-min Rain = 0
KMC4 232050Z 28021KT 17/M10 A3003 RMK A01 T01651100  RH  015%=      5-min Rain = 0
KMC4 232051Z 26021KT 17/M10 A3003 RMK A01 T01661098  RH  015%=      5-min Rain = 0
KMC4 232052Z 27023G28KT 17/M10 A3003 RMK A01 T01681098  RH  015%=      5-min Rain = 0
KMC4 232053Z 27023G28KT 17/M10 A3003 RMK A01 T01691098  RH  015%=      5-min Rain = 0
KMC4 232054Z 28023KT 17/M10 A3003 RMK A01 T01661099  RH  015%=      5-min Rain = 0
KMC4 232055Z 28021KT 16/M10 A3003 RMK A01 T01641101  RH  015%=      5-min Rain = 0
KMC4 232056Z 27020G27KT 16/M10 A3003 RMK A01 T01631100  RH  015%=      5-min Rain = 0
KMC4 232057Z 27021G27KT 17/M10 A3002 RMK A01 T01651099  RH  015%=      5-min Rain = 0
KMC4 232058Z 27021G27KT 17/M10 A3003 RMK A01 T01661097  RH  016%=      5-min Rain = 0
KMC4 232059Z 27019KT 17/M10 A3003 RMK A01 T01681098  RH  015%=      5-min Rain = 0
KMC4 232100Z 28020G26KT 17/M11 A3003 RMK A01 T01691107  RH  014%=      5-min Rain = 0
KMC4 232101Z 28022KT 17/M11 A3003 RMK A01 T01681111  RH  014%=      5-min Rain = 0
KMC4 232102Z 28020G25KT 17/M11 A3003 RMK A01 T01681109  RH  014%=      5-min Rain = 0
KMC4 232103Z 28027G32KT 17/M11 A3003 RMK A01 T01691110  RH  014%=      5-min Rain = 0
KMC4 232104Z 28028KT 17/M12 A3002 RMK A01 T01691120  RH  013%=      5-min Rain = 0
KMC4 232105Z 29022G30KT 17/M12 A3003 RMK A01 T01661123  RH  013%=      5-min Rain = 0
KMC4 232106Z 28018G23KT 17/M12 A3003 RMK A01 T01661118  RH  013%=      5-min Rain = 0
KMC4 232107Z 28019G25KT 17/M11 A3003 RMK A01 T01701110  RH  014%=      5-min Rain = 0
KMC4 232108Z 28021KT 17/M11 A3003 RMK A01 T01711109  RH  014%=      5-min Rain = 0
KMC4 232109Z 29023KT 17/M11 A3003 RMK A01 T01691110  RH  014%=      5-min Rain = 0
KMC4 232110Z 29018G28KT 17/M11 A3003 RMK A01 T01671107  RH  014%=      5-min Rain = 0
KMC4 232111Z 29022G28KT 17/M11 A3003 RMK A01 T01691106  RH  014%=      5-min Rain = 0
KMC4 232112Z 29023KT 17/M11 A3003 RMK A01 T01701107  RH  014%=      5-min Rain = 0
KMC4 232113Z 29020G26KT 17/M11 A3003 RMK A01 T01691109  RH  014%=      5-min Rain = 0
KMC4 232114Z 27023KT 17/M11 A3003 RMK A01 T01681110  RH  014%=      5-min Rain = 0
KMC4 232115Z 28019G25KT 17/M11 A3003 RMK A01 T01671108  RH  014%=      5-min Rain = 0
KMC4 232116Z 28025G30KT 17/M11 A3003 RMK A01 T01691108  RH  014%=      5-min Rain = 0
KMC4 232117Z 29021KT 17/M11 A3003 RMK A01 T01671109  RH  014%=      5-min Rain = 0
KMC4 232118Z 30017G22KT 17/M11 A3003 RMK A01 T01651105  RH  015%=      5-min Rain = 0
KMC4 232119Z 28018G23KT 17/M10 A3003 RMK A01 T01671102  RH  015%=      5-min Rain = 0
KMC4 232120Z 28019KT 17/M10 A3003 RMK A01 T01681103  RH  015%=      5-min Rain = 0
KMC4 232121Z 28016G22KT 17/M10 A3003 RMK A01 T01681103  RH  015%=      5-min Rain = 0
KMC4 232122Z 29018KT 17/M10 A3004 RMK A01 T01691102  RH  015%=      5-min Rain = 0
KMC4 232123Z 30020G25KT 17/M11 A3004 RMK A01 T01701109  RH  014%=      5-min Rain = 0
KMC4 232124Z 29019KT 17/M11 A3004 RMK A01 T01681112  RH  014%=      5-min Rain = 0
KMC4 232125Z 30017G22KT 17/M11 A3003 RMK A01 T01661109  RH  014%=      5-min Rain = 0
KMC4 232126Z 29019G25KT 17/M10 A3003 RMK A01 T01671104  RH  015%=      5-min Rain = 0
KMC4 232127Z 29023G29KT 17/M10 A3003 RMK A01 T01691104  RH  014%=      5-min Rain = 0
KMC4 232128Z 29021G26KT 17/M11 A3003 RMK A01 T01691106  RH  014%=      5-min Rain = 0
KMC4 232129Z 28025G30KT 17/M11 A3003 RMK A01 T01691105  RH  014%=      5-min Rain = 0
KMC4 232130Z 28022KT 17/M10 A3003 RMK A01 T01691104  RH  014%=      5-min Rain = 0
KMC4 232131Z 28022KT 17/M11 A3003 RMK A01 T01681105  RH  014%=      5-min Rain = 0
KMC4 232132Z 28023KT 17/M11 A3003 RMK A01 T01681105  RH  014%=      5-min Rain = 0
KMC4 232133Z 28023G29KT 17/M10 A3003 RMK A01 T01671104  RH  015%=      5-min Rain = 0
KMC4 232134Z 27020G25KT 17/M10 A3003 RMK A01 T01691100  RH  015%=      5-min Rain = 0
KMC4 232135Z 28021G26KT 17/M10 A3003 RMK A01 T01691102  RH  015%=      5-min Rain = 0
KMC4 232136Z 28021KT 17/M10 A3003 RMK A01 T01691103  RH  015%=      5-min Rain = 0
KMC4 232137Z 28018G23KT 17/M10 A3004 RMK A01 T01681103  RH  015%=      5-min Rain = 0
KMC4 232138Z 27019KT 17/M10 A3003 RMK A01 T01691102  RH  015%=      5-min Rain = 0
KMC4 232139Z 28023KT 17/M10 A3003 RMK A01 T01691100  RH  015%=      5-min Rain = 0
KMC4 232140Z 28022KT 17/M10 A3003 RMK A01 T01691103  RH  015%=      5-min Rain = 0
KMC4 232141Z 28022G27KT 17/M10 A3004 RMK A01 T01691102  RH  015%=      5-min Rain = 0
KMC4 232142Z 28019KT 17/M10 A3004 RMK A01 T01701101  RH  015%=      5-min Rain = 0
KMC4 232143Z 29018G23KT 17/M10 A3004 RMK A01 T01701100  RH  015%=      5-min Rain = 0
KMC4 232144Z 29021G31KT 17/M10 A3004 RMK A01 T01711101  RH  015%=      5-min Rain = 0
KMC4 232145Z 29024G30KT 17/M11 A3003 RMK A01 T01711108  RH  014%=      5-min Rain = 0
KMC4 232146Z 30022KT 17/M11 A3004 RMK A01 T01701112  RH  013%=      5-min Rain = 0
KMC4 232147Z 29021G26KT 17/M11 A3004 RMK A01 T01691114  RH  013%=      5-min Rain = 0
KMC4 232148Z 29020G25KT 17/M11 A3004 RMK A01 T01691114  RH  013%=      5-min Rain = 0
KMC4 232149Z 28016KT 17/M11 A3004 RMK A01 T01691109  RH  014%=      5-min Rain = 0
KMC4 232150Z 29019G24KT 17/M10 A3004 RMK A01 T01701104  RH  014%=      5-min Rain = 0
KMC4 232151Z 28011KT 17/M10 A3004 RMK A01 T01701102  RH  015%=      5-min Rain = 0
KMC4 232152Z 29012KT 17/M09 A3004 RMK A01 T01721094  RH  015%=      5-min Rain = 0
KMC4 232153Z 27017G26KT 18/M10 A3003 RMK A01 T01751097  RH  015%=      5-min Rain = 0
KMC4 232154Z 28028KT 18/M10 A3003 RMK A01 T01751104  RH  014%=      5-min Rain = 0
KMC4 232155Z 28025KT 17/M11 A3003 RMK A01 T01721109  RH  014%=      5-min Rain = 0
KMC4 232156Z 28021KT 17/M11 A3003 RMK A01 T01701109  RH  014%=      5-min Rain = 0
KMC4 232157Z 29018G23KT 17/M11 A3003 RMK A01 T01701107  RH  014%=      5-min Rain = 0
KMC4 232158Z 30017G22KT 17/M11 A3004 RMK A01 T01731105  RH  014%=      5-min Rain = 0
KMC4 232159Z 29023G28KT 17/M11 A3003 RMK A01 T01741107  RH  014%=      5-min Rain = 0
KMC4 232200Z 29019KT 17/M11 A3004 RMK A01 T01721110  RH  014%=      5-min Rain = 0
KMC4 232201Z 29020KT 17/M11 A3004 RMK A01 T01711111  RH  013%=      5-min Rain = 0
KMC4 232202Z 29021G27KT 17/M11 A3004 RMK A01 T01721111  RH  013%=      5-min Rain = 0
KMC4 232203Z 28022KT 17/M11 A3003 RMK A01 T01721111  RH  013%=      5-min Rain = 0
KMC4 232204Z 28021KT 17/M11 A3003 RMK A01 T01721113  RH  013%=      5-min Rain = 0
KMC4 232205Z 27021KT 17/M11 A3003 RMK A01 T01711113  RH  013%=      5-min Rain = 0
KMC4 232206Z 28022KT 17/M11 A3003 RMK A01 T01711111  RH  014%=      5-min Rain = 0
KMC4 232207Z 29021KT 17/M11 A3004 RMK A01 T01711109  RH  014%=      5-min Rain = 0
KMC4 232208Z 29021KT 17/M11 A3004 RMK A01 T01721111  RH  013%=      5-min Rain = 0
KMC4 232209Z 29020KT 17/M11 A3004 RMK A01 T01721113  RH  013%=      5-min Rain = 0
KMC4 232210Z 30017G23KT 17/M12 A3004 RMK A01 T01721115  RH  013%=      5-min Rain = 0
KMC4 232211Z 30019KT 17/M12 A3004 RMK A01 T01721116  RH  013%=      5-min Rain = 0
KMC4 232212Z 29016KT 17/M12 A3004 RMK A01 T01711118  RH  013%=      5-min Rain = 0
KMC4 232213Z 29016G22KT 17/M11 A3004 RMK A01 T01721112  RH  013%=      5-min Rain = 0
KMC4 232214Z 29023KT 18/M11 A3004 RMK A01 T01761112  RH  013%=      5-min Rain = 0
KMC4 232215Z 28019G24KT 18/M12 A3004 RMK A01 T01751118  RH  012%=      5-min Rain = 0
KMC4 232216Z 28022G27KT 17/M11 A3004 RMK A01 T01741114  RH  013%=      5-min Rain = 0
KMC4 232217Z 28021KT 17/M11 A3004 RMK A01 T01731111  RH  013%=      5-min Rain = 0
KMC4 232218Z 28022KT 17/M11 A3004 RMK A01 T01731111  RH  013%=      5-min Rain = 0
KMC4 232219Z 28020KT 17/M11 A3004 RMK A01 T01711112  RH  013%=      5-min Rain = 0
KMC4 232220Z 29017KT 17/M11 A3004 RMK A01 T01711112  RH  013%=      5-min Rain = 0
KMC4 232221Z 28015KT 17/M11 A3004 RMK A01 T01701112  RH  013%=      5-min Rain = 0
KMC4 232222Z 28016KT 17/M11 A3004 RMK A01 T01701112  RH  013%=      5-min Rain = 0
KMC4 232223Z 28017G23KT 17/M11 A3004 RMK A01 T01701111  RH  014%=      5-min Rain = 0
KMC4 232224Z 29020KT 17/M11 A3004 RMK A01 T01721113  RH  013%=      5-min Rain = 0
KMC4 232225Z 30019KT 17/M12 A3004 RMK A01 T01731115  RH  013%=      5-min Rain = 0
KMC4 232226Z 28018KT 17/M12 A3004 RMK A01 T01721116  RH  013%=      5-min Rain = 0
KMC4 232227Z 28014KT 17/M11 A3004 RMK A01 T01721112  RH  013%=      5-min Rain = 0
KMC4 232228Z 29015KT 18/M11 A3004 RMK A01 T01751109  RH  013%=      5-min Rain = 0
KMC4 232229Z 29016KT 18/M11 A3004 RMK A01 T01751109  RH  013%=      5-min Rain = 0
KMC4 232230Z 29016KT 18/M11 A3004 RMK A01 T01751109  RH  013%=      5-min Rain = 0
KMC4 232231Z 29015G22KT 17/M11 A3004 RMK A01 T01731110  RH  013%=      5-min Rain = 0
KMC4 232232Z 28019KT 17/M11 A3004 RMK A01 T01731111  RH  013%=      5-min Rain = 0
KMC4 232233Z 29017G22KT 17/M11 A3005 RMK A01 T01741114  RH  013%=      5-min Rain = 0
KMC4 232234Z 30016KT 18/M12 A3005 RMK A01 T01771118  RH  012%=      5-min Rain = 0
KMC4 232235Z 30018G23KT 18/M12 A3005 RMK A01 T01771122  RH  012%=      5-min Rain = 0
KMC4 232236Z 31016KT 18/M13 A3005 RMK A01 T01761129  RH  011%=      5-min Rain = 0
KMC4 232237Z 30016G21KT 18/M13 A3005 RMK A01 T01751129  RH  011%=      5-min Rain = 0
KMC4 232238Z 30014KT 18/M13 A3005 RMK A01 T01751126  RH  012%=      5-min Rain = 0
KMC4 232239Z 28020KT 18/M12 A3005 RMK A01 T01751123  RH  012%=      5-min Rain = 0
KMC4 232240Z 28018G25KT 17/M12 A3005 RMK A01 T01741121  RH  012%=      5-min Rain = 0
KMC4 232241Z 29019G24KT 17/M12 A3005 RMK A01 T01731121  RH  012%=      5-min Rain = 0
KMC4 232242Z 28019G25KT 17/M12 A3005 RMK A01 T01731122  RH  012%=      5-min Rain = 0
KMC4 232243Z 27020KT 17/M12 A3005 RMK A01 T01731122  RH  012%=      5-min Rain = 0
KMC4 232244Z 27021KT 17/M13 A3005 RMK A01 T01721126  RH  012%=      5-min Rain = 0
KMC4 232245Z 27016KT 17/M13 A3005 RMK A01 T01701127  RH  012%=      5-min Rain = 0
KMC4 232246Z 27014KT 17/M13 A3005 RMK A01 T01701125  RH  012%=      5-min Rain = 0
KMC4 232247Z 28014KT 17/M12 A3005 RMK A01 T01721120  RH  012%=      5-min Rain = 0
KMC4 232248Z 28017KT 17/M12 A3005 RMK A01 T01741120  RH  012%=      5-min Rain = 0
KMC4 232249Z 28021KT 17/M12 A3005 RMK A01 T01731122  RH  012%=      5-min Rain = 0
KMC4 232250Z 29017KT 17/M12 A3006 RMK A01 T01731120  RH  012%=      5-min Rain = 0
KMC4 232251Z 29015KT 17/M12 A3006 RMK A01 T01721119  RH  013%=      5-min Rain = 0
KMC4 232252Z 28015G20KT 17/M12 A3006 RMK A01 T01731120  RH  012%=      5-min Rain = 0
KMC4 232253Z 27016KT 17/M12 A3006 RMK A01 T01731120  RH  012%=      5-min Rain = 0
KMC4 232254Z 29012KT 17/M12 A3006 RMK A01 T01731119  RH  012%=      5-min Rain = 0
KMC4 232255Z 29016KT 17/M12 A3006 RMK A01 T01741117  RH  013%=      5-min Rain = 0
KMC4 232256Z 28018KT 17/M12 A3006 RMK A01 T01741119  RH  012%=      5-min Rain = 0
KMC4 232257Z 28013KT 17/M12 A3006 RMK A01 T01741116  RH  013%=      5-min Rain = 0
KMC4 232258Z 29019G25KT 17/M11 A3006 RMK A01 T01741114  RH  013%=      5-min Rain = 0
KMC4 232259Z 29021G26KT 17/M12 A3006 RMK A01 T01741118  RH  013%=      5-min Rain = 0
KMC4 232300Z 29020KT 17/M12 A3006 RMK A01 T01721121  RH  012%=      5-min Rain = 0
KMC4 232301Z 29017G22KT 17/M12 A3006 RMK A01 T01711121  RH  012%=      5-min Rain = 0
KMC4 232302Z 30013KT 17/M12 A3007 RMK A01 T01711118  RH  013%=      5-min Rain = 0
KMC4 232303Z 29013KT 17/M12 A3007 RMK A01 T01711118  RH  013%=      5-min Rain = 0
KMC4 232304Z 28013KT 17/M12 A3006 RMK A01 T01711119  RH  013%=      5-min Rain = 0
KMC4 232305Z 29012KT 17/M12 A3007 RMK A01 T01721119  RH  013%=      5-min Rain = 0
KMC4 232306Z 29016G21KT 17/M12 A3006 RMK A01 T01721120  RH  012%=      5-min Rain = 0
KMC4 232307Z 29016G21KT 17/M12 A3006 RMK A01 T01721122  RH  012%=      5-min Rain = 0
KMC4 232308Z 30017KT 17/M12 A3006 RMK A01 T01711120  RH  013%=      5-min Rain = 0
KMC4 232309Z 30012G17KT 17/M12 A3006 RMK A01 T01711120  RH  013%=      5-min Rain = 0
KMC4 232310Z 29010KT 17/M12 A3006 RMK A01 T01701119  RH  013%=      5-min Rain = 0
KMC4 232311Z 28012G19KT 17/M12 A3007 RMK A01 T01711119  RH  013%=      5-min Rain = 0
KMC4 232312Z 28016G21KT 17/M12 A3006 RMK A01 T01711118  RH  013%=      5-min Rain = 0
KMC4 232313Z 29017KT 17/M12 A3006 RMK A01 T01711116  RH  013%=      5-min Rain = 0
KMC4 232314Z 29017KT 17/M12 A3007 RMK A01 T01711116  RH  013%=      5-min Rain = 0
KMC4 232315Z 30014KT 17/M12 A3007 RMK A01 T01701116  RH  013%=      5-min Rain = 0
KMC4 232316Z 29016G21KT 17/M12 A3007 RMK A01 T01701115  RH  013%=      5-min Rain = 0
KMC4 232317Z 29018KT 17/M11 A3006 RMK A01 T01701114  RH  013%=      5-min Rain = 0
KMC4 232318Z 27017G22KT 17/M12 A3006 RMK A01 T01701115  RH  013%=      5-min Rain = 0
KMC4 232319Z 28018KT 17/M12 A3006 RMK A01 T01691115  RH  013%=      5-min Rain = 0
KMC4 232320Z 29017KT 17/M11 A3007 RMK A01 T01701114  RH  013%=      5-min Rain = 0
KMC4 232321Z 28016KT 17/M11 A3007 RMK A01 T01701114  RH  013%=      5-min Rain = 0
KMC4 232322Z 29016G21KT 17/M12 A3007 RMK A01 T01701116  RH  013%=      5-min Rain = 0
KMC4 232323Z 29015KT 17/M12 A3007 RMK A01 T01691115  RH  013%=      5-min Rain = 0
KMC4 232324Z 28013KT 17/M12 A3007 RMK A01 T01681115  RH  013%=      5-min Rain = 0
KMC4 232325Z 28013KT 17/M12 A3007 RMK A01 T01681116  RH  013%=      5-min Rain = 0
KMC4 232326Z 29014G19KT 17/M12 A3007 RMK A01 T01681116  RH  013%=      5-min Rain = 0
KMC4 232327Z 29014KT 17/M12 A3007 RMK A01 T01671116  RH  013%=      5-min Rain = 0
KMC4 232328Z 28016KT 17/M11 A3007 RMK A01 T01671114  RH  014%=      5-min Rain = 0
KMC4 232329Z 27017KT 17/M11 A3007 RMK A01 T01681111  RH  014%=      5-min Rain = 0
KMC4 232330Z 28016KT 17/M11 A3007 RMK A01 T01681111  RH  014%=      5-min Rain = 0
KMC4 232331Z 29014KT 17/M11 A3007 RMK A01 T01691110  RH  014%=      5-min Rain = 0
KMC4 232332Z 28014KT 17/M11 A3007 RMK A01 T01691110  RH  014%=      5-min Rain = 0
KMC4 232333Z 29015G20KT 17/M11 A3007 RMK A01 T01691111  RH  014%=      5-min Rain = 0
KMC4 232334Z 29018G23KT 17/M11 A3007 RMK A01 T01691111  RH  014%=      5-min Rain = 0
KMC4 232335Z 29018KT 17/M11 A3006 RMK A01 T01681110  RH  014%=      5-min Rain = 0
KMC4 232336Z 28016KT 17/M11 A3006 RMK A01 T01681108  RH  014%=      5-min Rain = 0
KMC4 232337Z 29015KT 17/M11 A3007 RMK A01 T01671107  RH  014%=      5-min Rain = 0
KMC4 232338Z 29015KT 17/M11 A3007 RMK A01 T01671106  RH  014%=      5-min Rain = 0
KMC4 232339Z 29013KT 17/M11 A3007 RMK A01 T01671106  RH  014%=      5-min Rain = 0
KMC4 232340Z 28015KT 17/M11 A3006 RMK A01 T01671106  RH  014%=      5-min Rain = 0
KMC4 232341Z 29013KT 17/M11 A3007 RMK A01 T01671107  RH  014%=      5-min Rain = 0
KMC4 232342Z 29015KT 17/M11 A3007 RMK A01 T01671106  RH  014%=      5-min Rain = 0
KMC4 232343Z 30016G21KT 17/M11 A3007 RMK A01 T01671106  RH  014%=      5-min Rain = 0
KMC4 232344Z 28016KT 17/M11 A3007 RMK A01 T01661107  RH  014%=      5-min Rain = 0
KMC4 232345Z 28017G22KT 17/M11 A3007 RMK A01 T01661107  RH  014%=      5-min Rain = 0
KMC4 232346Z 28015KT 17/M11 A3007 RMK A01 T01651106  RH  015%=      5-min Rain = 0
KMC4 232347Z 28016KT 17/M11 A3007 RMK A01 T01651105  RH  015%=      5-min Rain = 0
KMC4 232348Z 27016KT 17/M11 A3006 RMK A01 T01651105  RH  015%=      5-min Rain = 0
KMC4 232349Z 28012KT 17/M11 A3007 RMK A01 T01651105  RH  015%=      5-min Rain = 0
KMC4 232350Z 28012KT 17/M10 A3007 RMK A01 T01651103  RH  015%=      5-min Rain = 0
KMC4 232351Z 27014KT 17/M10 A3006 RMK A01 T01651103  RH  015%=      5-min Rain = 0
KMC4 232352Z 27014KT 17/M11 A3006 RMK A01 T01651106  RH  015%=      5-min Rain = 0
KMC4 232353Z 28012KT 17/M11 A3007 RMK A01 T01651105  RH  015%=      5-min Rain = 0
KMC4 232354Z 28012G17KT 17/M10 A3007 RMK A01 T01651104  RH  015%=      5-min Rain = 0
KMC4 232355Z 28014KT 17/M11 A3007 RMK A01 T01651108  RH  014%=      5-min Rain = 0
KMC4 232356Z 28015KT 17/M11 A3007 RMK A01 T01651110  RH  014%=      5-min Rain = 0
KMC4 232357Z 29012KT 17/M11 A3007 RMK A01 T01651111  RH  014%=      5-min Rain = 0
KMC4 232358Z 30015KT 17/M11 A3007 RMK A01 T01651112  RH  014%=      5-min Rain = 0
KMC4 232359Z 30014KT 16/M11 A3007 RMK A01 T01641112  RH  014%=      5-min Rain = 0
KMC4 240000Z 29012KT 16/M11 A3007 RMK A01 T01641112  RH  014%=      5-min Rain = 0
KMC4 240001Z 29010KT 16/M11 A3007 RMK A01 T01641111  RH  014%=      5-min Rain = 0
KMC4 240002Z 30011KT 16/M11 A3007 RMK A01 T01641110  RH  014%=      5-min Rain = 0
KMC4 240003Z 29010KT 16/M11 A3007 RMK A01 T01631109  RH  014%=      5-min Rain = 0
KMC4 240004Z 29012KT 16/M11 A3007 RMK A01 T01631109  RH  014%=      5-min Rain = 0
KMC4 240005Z 29013KT 16/M11 A3007 RMK A01 T01631108  RH  015%=      5-min Rain = 0
KMC4 240006Z 28013KT 16/M11 A3007 RMK A01 T01631105  RH  015%=      5-min Rain = 0
KMC4 240007Z 28011KT 16/M10 A3007 RMK A01 T01631103  RH  015%=      5-min Rain = 0
KMC4 240008Z 28012KT 16/M10 A3007 RMK A01 T01621102  RH  015%=      5-min Rain = 0
KMC4 240009Z 28010KT 16/M10 A3007 RMK A01 T01621100  RH  016%=      5-min Rain = 0
KMC4 240010Z 28011KT 16/M10 A3007 RMK A01 T01611099  RH  016%=      5-min Rain = 0
KMC4 240011Z 27016KT 16/M10 A3007 RMK A01 T01611098  RH  016%=      5-min Rain = 0
KMC4 240012Z 27015KT 16/M10 A3007 RMK A01 T01601100  RH  016%=      5-min Rain = 0
KMC4 240013Z 28016KT 16/M10 A3007 RMK A01 T01601101  RH  016%=      5-min Rain = 0
KMC4 240014Z 28014KT 16/M10 A3007 RMK A01 T01591102  RH  016%=      5-min Rain = 0
KMC4 240015Z 28015KT 16/M10 A3007 RMK A01 T01591101  RH  016%=      5-min Rain = 0
KMC4 240016Z 28016KT 16/M10 A3007 RMK A01 T01591102  RH  016%=      5-min Rain = 0
KMC4 240017Z 28014KT 16/M10 A3007 RMK A01 T01591103  RH  016%=      5-min Rain = 0
KMC4 240018Z 28013KT 16/M10 A3007 RMK A01 T01591101  RH  016%=      5-min Rain = 0
KMC4 240019Z 28015KT 16/M10 A3007 RMK A01 T01581101  RH  016%=      5-min Rain = 0
KMC4 240020Z 28013KT 16/M10 A3008 RMK A01 T01581102  RH  016%=      5-min Rain = 0
KMC4 240021Z 28012KT 16/M10 A3008 RMK A01 T01571101  RH  016%=      5-min Rain = 0
KMC4 240022Z 28012KT 16/M10 A3008 RMK A01 T01571102  RH  016%=      5-min Rain = 0
KMC4 240023Z 28010KT 16/M10 A3008 RMK A01 T01571102  RH  016%=      5-min Rain = 0
KMC4 240024Z 28010KT 16/M10 A3008 RMK A01 T01571101  RH  016%=      5-min Rain = 0
KMC4 240025Z 28009KT 16/M10 A3008 RMK A01 T01561100  RH  016%=      5-min Rain = 0
KMC4 240026Z 28011KT 16/M10 A3008 RMK A01 T01551099  RH  016%=      5-min Rain = 0
KMC4 240027Z 28009KT 16/M10 A3008 RMK A01 T01551099  RH  016%=      5-min Rain = 0
KMC4 240028Z 28011KT 15/M10 A3008 RMK A01 T01541099  RH  017%=      5-min Rain = 0
KMC4 240029Z 28011KT 15/M10 A3008 RMK A01 T01531100  RH  016%=      5-min Rain = 0
KMC4 240030Z 28009KT 15/M10 A3008 RMK A01 T01531100  RH  016%=      5-min Rain = 0
KMC4 240031Z 28009KT 15/M10 A3008 RMK A01 T01531099  RH  017%=      5-min Rain = 0
KMC4 240032Z 28009KT 15/M10 A3008 RMK A01 T01521099  RH  017%=      5-min Rain = 0
KMC4 240033Z 28008KT 15/M10 A3008 RMK A01 T01511099  RH  017%=      5-min Rain = 0
KMC4 240034Z 28009KT 15/M10 A3008 RMK A01 T01501098  RH  017%=      5-min Rain = 0
KMC4 240035Z 28010KT 15/M10 A3008 RMK A01 T01501099  RH  017%=      5-min Rain = 0
KMC4 240036Z 28009KT 15/M10 A3008 RMK A01 T01501099  RH  017%=      5-min Rain = 0
KMC4 240037Z 28008KT 15/M10 A3008 RMK A01 T01491098  RH  017%=      5-min Rain = 0
KMC4 240038Z 28009KT 15/M10 A3008 RMK A01 T01481098  RH  017%=      5-min Rain = 0
KMC4 240039Z 28008KT 15/M10 A3008 RMK A01 T01471098  RH  017%=      5-min Rain = 0
KMC4 240040Z 28008KT 15/M10 A3008 RMK A01 T01461098  RH  018%=      5-min Rain = 0
KMC4 240041Z 28008KT 15/M10 A3008 RMK A01 T01461097  RH  018%=      5-min Rain = 0
KMC4 240042Z 27008KT 15/M10 A3008 RMK A01 T01451096  RH  018%=      5-min Rain = 0
KMC4 240043Z 27008KT 14/M10 A3008 RMK A01 T01441097  RH  018%=      5-min Rain = 0
KMC4 240044Z 27008KT 14/M10 A3008 RMK A01 T01441097  RH  018%=      5-min Rain = 0
KMC4 240045Z 27007KT 14/M10 A3008 RMK A01 T01431098  RH  018%=      5-min Rain = 0
KMC4 240046Z 26007KT 14/M10 A3008 RMK A01 T01421098  RH  018%=      5-min Rain = 0
KMC4 240047Z 27007KT 14/M10 A3008 RMK A01 T01411098  RH  018%=      5-min Rain = 0
KMC4 240048Z 26007KT 14/M10 A3008 RMK A01 T01401098  RH  018%=      5-min Rain = 0
KMC4 240049Z 26007KT 14/M10 A3008 RMK A01 T01401099  RH  018%=      5-min Rain = 0
KMC4 240050Z 27006KT 14/M10 A3008 RMK A01 T01391099  RH  018%=      5-min Rain = 0
KMC4 240051Z 27006KT 14/M10 A3008 RMK A01 T01381098  RH  018%=      5-min Rain = 0
KMC4 240052Z 27006KT 14/M10 A3009 RMK A01 T01381098  RH  018%=      5-min Rain = 0
KMC4 240053Z 27006KT 14/M10 A3009 RMK A01 T01371098  RH  019%=      5-min Rain = 0
KMC4 240054Z 27006KT 14/M10 A3009 RMK A01 T01361098  RH  019%=      5-min Rain = 0
KMC4 240055Z 27006KT 14/M10 A3009 RMK A01 T01351098  RH  019%=      5-min Rain = 0
KMC4 240056Z 27006KT 13/M10 A3009 RMK A01 T01341098  RH  019%=      5-min Rain = 0
KMC4 240057Z 27006KT 13/M10 A3009 RMK A01 T01341097  RH  019%=      5-min Rain = 0
KMC4 240058Z 27006KT 13/M10 A3009 RMK A01 T01331097  RH  019%=      5-min Rain = 0
KMC4 240059Z 27006KT 13/M10 A3009 RMK A01 T01321097  RH  019%=      5-min Rain = 0
KMC4 240100Z 27006KT 13/M10 A3009 RMK A01 T01311097  RH  019%=      5-min Rain = 0
KMC4 240101Z 27006KT 13/M10 A3009 RMK A01 T01301097  RH  020%=      5-min Rain = 0
KMC4 240102Z 27007KT 13/M10 A3009 RMK A01 T01301097  RH  020%=      5-min Rain = 0
KMC4 240103Z 27006KT 13/M10 A3009 RMK A01 T01291097  RH  020%=      5-min Rain = 0
KMC4 240104Z 28007KT 13/M10 A3009 RMK A01 T01291096  RH  020%=      5-min Rain = 0
KMC4 240105Z 28007KT 13/M10 A3009 RMK A01 T01281097  RH  020%=      5-min Rain = 0
KMC4 240106Z 28007KT 13/M10 A3009 RMK A01 T01281096  RH  020%=      5-min Rain = 0
KMC4 240107Z 28007KT 13/M10 A3009 RMK A01 T01281096  RH  020%=      5-min Rain = 0
KMC4 240108Z 28007KT 13/M10 A3009 RMK A01 T01261096  RH  020%=      5-min Rain = 0
KMC4 240109Z 28007KT 13/M10 A3009 RMK A01 T01261097  RH  020%=      5-min Rain = 0
KMC4 240110Z 28007KT 13/M10 A3009 RMK A01 T01251097  RH  020%=      5-min Rain = 0
KMC4 240111Z 28007KT 13/M10 A3009 RMK A01 T01261097  RH  020%=      5-min Rain = 0
KMC4 240112Z 28007KT 13/M10 A3009 RMK A01 T01251096  RH  020%=      5-min Rain = 0
KMC4 240113Z 28006KT 13/M10 A3009 RMK A01 T01251097  RH  020%=      5-min Rain = 0
KMC4 240114Z 28006KT 12/M10 A3009 RMK A01 T01241097  RH  020%=      5-min Rain = 0
KMC4 240115Z 28006KT 12/M10 A3009 RMK A01 T01241096  RH  020%=      5-min Rain = 0
KMC4 240116Z 28006KT 12/M10 A3009 RMK A01 T01241097  RH  021%=      5-min Rain = 0
KMC4 240117Z 28005KT 12/M10 A3009 RMK A01 T01231096  RH  021%=      5-min Rain = 0
KMC4 240118Z 28005KT 12/M10 A3009 RMK A01 T01221097  RH  021%=      5-min Rain = 0
KMC4 240119Z 28005KT 12/M10 A301 RMK A01 T01221096  RH  021%=      5-min Rain = 0
KMC4 240120Z 28005KT 12/M10 A301 RMK A01 T01211096  RH  021%=      5-min Rain = 0
KMC4 240121Z 28004KT 12/M10 A301 RMK A01 T01221097  RH  021%=      5-min Rain = 0
KMC4 240122Z 29004KT 12/M10 A301 RMK A01 T01221097  RH  021%=      5-min Rain = 0
KMC4 240123Z 29004KT 12/M10 A301 RMK A01 T01221097  RH  021%=      5-min Rain = 0
KMC4 240124Z 29004KT 12/M10 A301 RMK A01 T01221097  RH  021%=      5-min Rain = 0
KMC4 240125Z 29004KT 12/M10 A301 RMK A01 T01221098  RH  021%=      5-min Rain = 0
KMC4 240126Z 28004KT 12/M10 A301 RMK A01 T01221098  RH  021%=      5-min Rain = 0
KMC4 240127Z 28004KT 12/M10 A3011 RMK A01 T01221097  RH  021%=      5-min Rain = 0
KMC4 240128Z 28003KT 12/M10 A3011 RMK A01 T01211097  RH  021%=      5-min Rain = 0
KMC4 240129Z 27003KT 12/M10 A3011 RMK A01 T01201097  RH  021%=      5-min Rain = 0
KMC4 240130Z 27002KT 12/M10 A3011 RMK A01 T01181097  RH  021%=      5-min Rain = 0
KMC4 240131Z 27002KT 12/M10 A3011 RMK A01 T01171097  RH  021%=      5-min Rain = 0
KMC4 240132Z 27002KT 12/M10 A3011 RMK A01 T01161097  RH  021%=      5-min Rain = 0
KMC4 240133Z 26002KT 12/M10 A3011 RMK A01 T01151096  RH  022%=      5-min Rain = 0
KMC4 240134Z 26002KT 12/M10 A3011 RMK A01 T01151097  RH  022%=      5-min Rain = 0
KMC4 240135Z 26002KT 11/M10 A3011 RMK A01 T01141096  RH  022%=      5-min Rain = 0
KMC4 240136Z 26002KT 11/M10 A3011 RMK A01 T01131096  RH  022%=      5-min Rain = 0
KMC4 240137Z 26002KT 11/M10 A3011 RMK A01 T01121096  RH  022%=      5-min Rain = 0
KMC4 240138Z 26002KT 11/M10 A3011 RMK A01 T01111096  RH  022%=      5-min Rain = 0
KMC4 240139Z 26002KT 11/M10 A3011 RMK A01 T01101096  RH  023%=      5-min Rain = 0
KMC4 240140Z 26002KT 11/M10 A3011 RMK A01 T01091096  RH  023%=      5-min Rain = 0
KMC4 240141Z 26002KT 11/M10 A3011 RMK A01 T01091096  RH  023%=      5-min Rain = 0
KMC4 240142Z 27002KT 11/M10 A3011 RMK A01 T01081097  RH  023%=      5-min Rain = 0
KMC4 240143Z 27002KT 11/M10 A3011 RMK A01 T01081097  RH  023%=      5-min Rain = 0
KMC4 240144Z 28003KT 11/M10 A3011 RMK A01 T01081096  RH  023%=      5-min Rain = 0
KMC4 240145Z 28003KT 11/M10 A3011 RMK A01 T01071097  RH  023%=      5-min Rain = 0
KMC4 240146Z 29003KT 11/M10 A3011 RMK A01 T01071097  RH  023%=      5-min Rain = 0
KMC4 240147Z 29004KT 11/M10 A3011 RMK A01 T01071097  RH  023%=      5-min Rain = 0
KMC4 240148Z 29004KT 11/M10 A3011 RMK A01 T01071097  RH  023%=      5-min Rain = 0
KMC4 240149Z 29004KT 11/M10 A3011 RMK A01 T01071098  RH  023%=      5-min Rain = 0
KMC4 240150Z 29005KT 11/M10 A3011 RMK A01 T01071097  RH  023%=      5-min Rain = 0
KMC4 240151Z 29005KT 11/M10 A3011 RMK A01 T01071096  RH  023%=      5-min Rain = 0
KMC4 240152Z 29005KT 11/M10 A3012 RMK A01 T01071097  RH  023%=      5-min Rain = 0
KMC4 240153Z 29005KT 11/M10 A3012 RMK A01 T01071097  RH  023%=      5-min Rain = 0
KMC4 240154Z 30004KT 11/M10 A3012 RMK A01 T01071097  RH  023%=      5-min Rain = 0
KMC4 240155Z 30004KT 11/M10 A3012 RMK A01 T01071096  RH  023%=      5-min Rain = 0
KMC4 240156Z 30004KT 11/M10 A3012 RMK A01 T01061096  RH  023%=      5-min Rain = 0
KMC4 240157Z 30004KT 11/M10 A3012 RMK A01 T01061096  RH  023%=      5-min Rain = 0
KMC4 240158Z 30004KT 11/M10 A3012 RMK A01 T01051096  RH  023%=      5-min Rain = 0
KMC4 240159Z 30003KT 11/M10 A3012 RMK A01 T01051095  RH  024%=      5-min Rain = 0
KMC4 240200Z 30003KT 10/M10 A3012 RMK A01 T01031095  RH  024%=      5-min Rain = 0
KMC4 240201Z 30003KT 10/M10 A3012 RMK A01 T01021096  RH  024%=      5-min Rain = 0
KMC4 240202Z 29003KT 10/M10 A3012 RMK A01 T01011097  RH  024%=      5-min Rain = 0
KMC4 240203Z 30003KT 10/M10 A3012 RMK A01 T01001096  RH  024%=      5-min Rain = 0
KMC4 240204Z 30003KT 10/M09 A3012 RMK A01 T00991094  RH  025%=      5-min Rain = 0
KMC4 240205Z 29003KT 10/M09 A3012 RMK A01 T00981092  RH  025%=      5-min Rain = 0
KMC4 240206Z 29003KT 10/M09 A3013 RMK A01 T00971093  RH  025%=      5-min Rain = 0
KMC4 240207Z 29002KT 10/M09 A3013 RMK A01 T00971093  RH  025%=      5-min Rain = 0
KMC4 240208Z 29002KT 10/M10 A3013 RMK A01 T00971095  RH  025%=      5-min Rain = 0
KMC4 240209Z 29002KT 10/M10 A3013 RMK A01 T00971095  RH  025%=      5-min Rain = 0
KMC4 240210Z 29001KT 10/M10 A3013 RMK A01 T00961095  RH  025%=      5-min Rain = 0
KMC4 240211Z 29001KT 10/M09 A3013 RMK A01 T00951094  RH  025%=      5-min Rain = 0
KMC4 240212Z 29001KT 09/M09 A3013 RMK A01 T00941091  RH  026%=      5-min Rain = 0
KMC4 240213Z 30001KT 09/M09 A3013 RMK A01 T00921092  RH  026%=      5-min Rain = 0
KMC4 240214Z 30001KT 09/M09 A3014 RMK A01 T00901092  RH  027%=      5-min Rain = 0
KMC4 240215Z 30001KT 09/M09 A3014 RMK A01 T00891093  RH  027%=      5-min Rain = 0
KMC4 240216Z 29001KT 09/M09 A3014 RMK A01 T00891094  RH  026%=      5-min Rain = 0
KMC4 240217Z 29001KT 09/M10 A3014 RMK A01 T00881095  RH  026%=      5-min Rain = 0
KMC4 240218Z 30001KT 09/M10 A3014 RMK A01 T00881095  RH  026%=      5-min Rain = 0
KMC4 240219Z 30000KT 09/M10 A3014 RMK A01 T00881095  RH  026%=      5-min Rain = 0
KMC4 240220Z 31001KT 09/M10 A3014 RMK A01 T00881095  RH  026%=      5-min Rain = 0
KMC4 240221Z 31001KT 09/M09 A3014 RMK A01 T00881094  RH  026%=      5-min Rain = 0
KMC4 240222Z 29001KT 09/M09 A3014 RMK A01 T00881093  RH  027%=      5-min Rain = 0
KMC4 240223Z 29002KT 09/M09 A3014 RMK A01 T00881093  RH  027%=      5-min Rain = 0
KMC4 240224Z 29003KT 09/M10 A3014 RMK A01 T00881095  RH  026%=      5-min Rain = 0
KMC4 240225Z 28004KT 09/M09 A3014 RMK A01 T00881093  RH  027%=      5-min Rain = 0
KMC4 240226Z 29003KT 09/M09 A3014 RMK A01 T00881090  RH  027%=      5-min Rain = 0
KMC4 240227Z 28004KT 09/M09 A3014 RMK A01 T00891091  RH  027%=      5-min Rain = 0
KMC4 240228Z 28004KT 09/M09 A3014 RMK A01 T00911091  RH  027%=      5-min Rain = 0
KMC4 240229Z 28004KT 09/M09 A3014 RMK A01 T00931092  RH  026%=      5-min Rain = 0
KMC4 240230Z 28004KT 10/M09 A3014 RMK A01 T00951092  RH  026%=      5-min Rain = 0
KMC4 240231Z 28004KT 10/M09 A3014 RMK A01 T00951093  RH  026%=      5-min Rain = 0
KMC4 240232Z 28004KT 10/M09 A3014 RMK A01 T00961094  RH  025%=      5-min Rain = 0
KMC4 240233Z 28004KT 10/M09 A3014 RMK A01 T00961094  RH  025%=      5-min Rain = 0
KMC4 240234Z 28003KT 10/M09 A3015 RMK A01 T00961094  RH  025%=      5-min Rain = 0
KMC4 240235Z 28003KT 10/M09 A3015 RMK A01 T00961094  RH  025%=      5-min Rain = 0
KMC4 240236Z 28003KT 10/M09 A3015 RMK A01 T00961094  RH  025%=      5-min Rain = 0
KMC4 240237Z 28003KT 10/M09 A3015 RMK A01 T00961093  RH  025%=      5-min Rain = 0
KMC4 240238Z 28003KT 10/M09 A3015 RMK A01 T00951093  RH  026%=      5-min Rain = 0
KMC4 240239Z 28003KT 10/M09 A3015 RMK A01 T00961093  RH  025%=      5-min Rain = 0
KMC4 240240Z 28003KT 10/M09 A3015 RMK A01 T00951093  RH  025%=      5-min Rain = 0
KMC4 240241Z 28003KT 10/M09 A3015 RMK A01 T00961093  RH  025%=      5-min Rain = 0
KMC4 240242Z 28004KT 10/M09 A3015 RMK A01 T00971093  RH  025%=      5-min Rain = 0
KMC4 240243Z 28003KT 10/M09 A3015 RMK A01 T00971093  RH  025%=      5-min Rain = 0
KMC4 240244Z 28004KT 10/M09 A3015 RMK A01 T00971094  RH  025%=      5-min Rain = 0
KMC4 240245Z 28004KT 10/M09 A3015 RMK A01 T00981094  RH  025%=      5-min Rain = 0
KMC4 240246Z 28003KT 10/M09 A3015 RMK A01 T00981093  RH  025%=      5-min Rain = 0
KMC4 240247Z 28003KT 10/M09 A3015 RMK A01 T00981094  RH  025%=      5-min Rain = 0
KMC4 240248Z 27003KT 10/M09 A3015 RMK A01 T00981094  RH  025%=      5-min Rain = 0
KMC4 240249Z 27002KT 10/M09 A3015 RMK A01 T00991094  RH  025%=      5-min Rain = 0
KMC4 240250Z 27002KT 10/M09 A3015 RMK A01 T00991093  RH  025%=      5-min Rain = 0
KMC4 240251Z 27002KT 10/M09 A3015 RMK A01 T00981093  RH  025%=      5-min Rain = 0
KMC4 240252Z 27002KT 10/M09 A3016 RMK A01 T00981094  RH  025%=      5-min Rain = 0
KMC4 240253Z 27001KT 10/M09 A3016 RMK A01 T00971094  RH  025%=      5-min Rain = 0
KMC4 240254Z 28002KT 10/M09 A3016 RMK A01 T00971093  RH  025%=      5-min Rain = 0
KMC4 240255Z 28001KT 10/M09 A3016 RMK A01 T00961092  RH  026%=      5-min Rain = 0
KMC4 240256Z 28002KT 10/M09 A3016 RMK A01 T00951093  RH  026%=      5-min Rain = 0
KMC4 240257Z 28002KT 09/M09 A3016 RMK A01 T00941094  RH  025%=      5-min Rain = 0
KMC4 240258Z 28002KT 09/M09 A3016 RMK A01 T00931094  RH  026%=      5-min Rain = 0
KMC4 240259Z 28002KT 09/M09 A3016 RMK A01 T00931094  RH  026%=      5-min Rain = 0
KMC4 240300Z 28002KT 09/M09 A3016 RMK A01 T00921094  RH  026%=      5-min Rain = 0
KMC4 240301Z 28002KT 09/M09 A3016 RMK A01 T00921093  RH  026%=      5-min Rain = 0
KMC4 240302Z 29003KT 09/M09 A3016 RMK A01 T00911091  RH  027%=      5-min Rain = 0
KMC4 240303Z 29002KT 09/M09 A3016 RMK A01 T00911091  RH  027%=      5-min Rain = 0
KMC4 240304Z 29003KT 09/M09 A3016 RMK A01 T00911089  RH  027%=      5-min Rain = 0
KMC4 240305Z 29002KT 09/M09 A3016 RMK A01 T00901091  RH  027%=      5-min Rain = 0
KMC4 240306Z 29002KT 09/M09 A3016 RMK A01 T00911091  RH  027%=      5-min Rain = 0
KMC4 240307Z 29003KT 09/M09 A3016 RMK A01 T00911091  RH  027%=      5-min Rain = 0
KMC4 240308Z 28002KT 09/M09 A3016 RMK A01 T00911092  RH  026%=      5-min Rain = 0
KMC4 240309Z 28002KT 09/M09 A3016 RMK A01 T00911091  RH  027%=      5-min Rain = 0
KMC4 240310Z 28002KT 09/M09 A3016 RMK A01 T00911090  RH  027%=      5-min Rain = 0
KMC4 240311Z 28002KT 09/M09 A3017 RMK A01 T00911089  RH  027%=      5-min Rain = 0
KMC4 240312Z 28002KT 09/M09 A3017 RMK A01 T00901089  RH  027%=      5-min Rain = 0
KMC4 240313Z 28002KT 09/M09 A3017 RMK A01 T00881091  RH  027%=      5-min Rain = 0
KMC4 240314Z 28002KT 09/M09 A3017 RMK A01 T00881092  RH  027%=      5-min Rain = 0
KMC4 240315Z 28002KT 09/M09 A3017 RMK A01 T00871091  RH  027%=      5-min Rain = 0
KMC4 240316Z 29002KT 09/M09 A3017 RMK A01 T00861092  RH  027%=      5-min Rain = 0
KMC4 240317Z 29002KT 08/M09 A3017 RMK A01 T00841091  RH  028%=      5-min Rain = 0
KMC4 240318Z 29002KT 08/M09 A3017 RMK A01 T00831092  RH  028%=      5-min Rain = 0
KMC4 240319Z 28001KT 08/M09 A3017 RMK A01 T00831094  RH  028%=      5-min Rain = 0
KMC4 240320Z 28001KT 08/M09 A3017 RMK A01 T00841094  RH  027%=      5-min Rain = 0
KMC4 240321Z 30001KT 08/M09 A3017 RMK A01 T00841094  RH  027%=      5-min Rain = 0
KMC4 240322Z 31001KT 09/M09 A3018 RMK A01 T00851092  RH  027%=      5-min Rain = 0
KMC4 240323Z 32001KT 09/M09 A3018 RMK A01 T00861088  RH  028%=      5-min Rain = 0
KMC4 240324Z 32001KT 09/M09 A3018 RMK A01 T00861088  RH  028%=      5-min Rain = 0
KMC4 240325Z 32001KT 09/M09 A3018 RMK A01 T00861090  RH  028%=      5-min Rain = 0
KMC4 240326Z 00000KT 09/M09 A3018 RMK A01 T00861091  RH  027%=      5-min Rain = 0
KMC4 240327Z 34000KT 09/M09 A3018 RMK A01 T00871090  RH  028%=      5-min Rain = 0
KMC4 240328Z 34001KT 09/M09 A3018 RMK A01 T00871089  RH  028%=      5-min Rain = 0
KMC4 240329Z 33001KT 09/M09 A3018 RMK A01 T00861087  RH  028%=      5-min Rain = 0
KMC4 240330Z 32001KT 09/M09 A3018 RMK A01 T00851089  RH  028%=      5-min Rain = 0
KMC4 240331Z 30001KT 09/M09 A3018 RMK A01 T00851089  RH  028%=      5-min Rain = 0
KMC4 240332Z 30002KT 09/M09 A3018 RMK A01 T00851093  RH  027%=      5-min Rain = 0
KMC4 240333Z 30002KT 09/M09 A3018 RMK A01 T00851094  RH  027%=      5-min Rain = 0
KMC4 240334Z 30003KT 09/M09 A3018 RMK A01 T00851091  RH  028%=      5-min Rain = 0
KMC4 240335Z 30003KT 08/M09 A3018 RMK A01 T00841089  RH  029%=      5-min Rain = 0
KMC4 240336Z 29004KT 08/M09 A3018 RMK A01 T00821088  RH  029%=      5-min Rain = 0
KMC4 240337Z 29004KT 08/M09 A3018 RMK A01 T00801087  RH  030%=      5-min Rain = 0
KMC4 240338Z 29004KT 08/M09 A3018 RMK A01 T00781089  RH  030%=      5-min Rain = 0
KMC4 240339Z 30004KT 08/M09 A3018 RMK A01 T00761088  RH  030%=      5-min Rain = 0
KMC4 240340Z 30005KT 08/M09 A3018 RMK A01 T00751089  RH  030%=      5-min Rain = 0
KMC4 240341Z 30005KT 07/M09 A3018 RMK A01 T00741091  RH  030%=      5-min Rain = 0
KMC4 240342Z 30005KT 07/M09 A3018 RMK A01 T00741092  RH  030%=      5-min Rain = 0
KMC4 240343Z 29005KT 08/M09 A3019 RMK A01 T00751092  RH  029%=      5-min Rain = 0
KMC4 240344Z 29005KT 08/M09 A3019 RMK A01 T00761092  RH  029%=      5-min Rain = 0
KMC4 240345Z 30005KT 08/M09 A3019 RMK A01 T00771092  RH  029%=      5-min Rain = 0
KMC4 240346Z 30005KT 08/M09 A3019 RMK A01 T00781092  RH  029%=      5-min Rain = 0
KMC4 240347Z 30005KT 08/M09 A3019 RMK A01 T00791093  RH  029%=      5-min Rain = 0
KMC4 240348Z 29005KT 08/M09 A3019 RMK A01 T00801092  RH  028%=      5-min Rain = 0
KMC4 240349Z 29005KT 08/M09 A3019 RMK A01 T00821092  RH  028%=      5-min Rain = 0
KMC4 240350Z 29004KT 08/M09 A3019 RMK A01 T00821092  RH  028%=      5-min Rain = 0
KMC4 240351Z 29004KT 08/M09 A3019 RMK A01 T00831092  RH  028%=      5-min Rain = 0
KMC4 240352Z 28004KT 08/M09 A3019 RMK A01 T00831093  RH  028%=      5-min Rain = 0
KMC4 240353Z 29004KT 08/M09 A3019 RMK A01 T00841094  RH  027%=      5-min Rain = 0
KMC4 240354Z 29003KT 09/M09 A302 RMK A01 T00851094  RH  027%=      5-min Rain = 0
KMC4 240355Z 29003KT 08/M09 A302 RMK A01 T00841094  RH  027%=      5-min Rain = 0
KMC4 240356Z 30002KT 08/M09 A302 RMK A01 T00841094  RH  027%=      5-min Rain = 0
KMC4 240357Z 31003KT 08/M09 A302 RMK A01 T00841093  RH  027%=      5-min Rain = 0
KMC4 240358Z 31002KT 08/M09 A302 RMK A01 T00841087  RH  029%=      5-min Rain = 0
KMC4 240359Z 30001KT 08/M09 A302 RMK A01 T00811085  RH  030%=      5-min Rain = 0
KMC4 240400Z 27001KT 08/M09 A302 RMK A01 T00751092  RH  029%=      5-min Rain = 0
KMC4 240401Z 27002KT 07/M09 A302 RMK A01 T00731093  RH  030%=      5-min Rain = 0
KMC4 240402Z 27003KT 07/M09 A302 RMK A01 T00721093  RH  030%=      5-min Rain = 0
KMC4 240403Z 26003KT 07/M09 A302 RMK A01 T00701092  RH  030%=      5-min Rain = 0
KMC4 240404Z 27004KT 07/M09 A302 RMK A01 T00681094  RH  031%=      5-min Rain = 0
KMC4 240405Z 27004KT 07/M09 A3021 RMK A01 T00681094  RH  031%=      5-min Rain = 0
KMC4 240406Z 27005KT 07/M09 A3021 RMK A01 T00671092  RH  031%=      5-min Rain = 0
KMC4 240407Z 26007KT 07/M10 A3021 RMK A01 T00681095  RH  030%=      5-min Rain = 0
KMC4 240408Z 26007KT 07/M10 A3021 RMK A01 T00691095  RH  030%=      5-min Rain = 0
KMC4 240409Z 26006KT 07/M09 A3021 RMK A01 T00681093  RH  031%=      5-min Rain = 0
KMC4 240410Z 27005KT 07/M09 A3021 RMK A01 T00661092  RH  031%=      5-min Rain = 0
KMC4 240411Z 27005KT 07/M09 A3021 RMK A01 T00651094  RH  031%=      5-min Rain = 0
KMC4 240412Z 28005KT 07/M09 A3021 RMK A01 T00651094  RH  031%=      5-min Rain = 0
KMC4 240413Z 28005KT 07/M09 A3021 RMK A01 T00661094  RH  031%=      5-min Rain = 0
KMC4 240414Z 28005KT 07/M09 A3021 RMK A01 T00661094  RH  031%=      5-min Rain = 0
KMC4 240415Z 29005KT 07/M10 A3021 RMK A01 T00661095  RH  031%=      5-min Rain = 0
KMC4 240416Z 29005KT 07/M10 A3022 RMK A01 T00671095  RH  031%=      5-min Rain = 0
KMC4 240417Z 30004KT 07/M09 A3022 RMK A01 T00671094  RH  031%=      5-min Rain = 0
KMC4 240418Z 30004KT 07/M10 A3022 RMK A01 T00691095  RH  030%=      5-min Rain = 0
KMC4 240419Z 31004KT 07/M10 A3022 RMK A01 T00701095  RH  030%=      5-min Rain = 0
KMC4 240420Z 31004KT 07/M10 A3022 RMK A01 T00721095  RH  029%=      5-min Rain = 0
KMC4 240421Z 31004KT 07/M10 A3022 RMK A01 T00731095  RH  029%=      5-min Rain = 0
KMC4 240422Z 31004KT 07/M09 A3022 RMK A01 T00731094  RH  029%=      5-min Rain = 0
KMC4 240423Z 31004KT 07/M09 A3022 RMK A01 T00731094  RH  029%=      5-min Rain = 0
KMC4 240424Z 30004KT 07/M09 A3022 RMK A01 T00731094  RH  029%=      5-min Rain = 0
KMC4 240425Z 30005KT 07/M09 A3022 RMK A01 T00721094  RH  030%=      5-min Rain = 0
KMC4 240426Z 30006KT 07/M09 A3022 RMK A01 T00721094  RH  030%=      5-min Rain = 0
KMC4 240427Z 29006KT 07/M09 A3022 RMK A01 T00721094  RH  029%=      5-min Rain = 0
KMC4 240428Z 29007KT 07/M10 A3022 RMK A01 T00741095  RH  029%=      5-min Rain = 0
KMC4 240429Z 29008KT 08/M10 A3022 RMK A01 T00751095  RH  029%=      5-min Rain = 0
KMC4 240430Z 29008KT 08/M10 A3022 RMK A01 T00761096  RH  028%=      5-min Rain = 0
KMC4 240431Z 29009KT 08/M10 A3022 RMK A01 T00761097  RH  028%=      5-min Rain = 0
KMC4 240432Z 29009KT 08/M10 A3022 RMK A01 T00761098  RH  028%=      5-min Rain = 0
KMC4 240433Z 29009KT 08/M10 A3022 RMK A01 T00761097  RH  028%=      5-min Rain = 0
KMC4 240434Z 29009KT 08/M10 A3022 RMK A01 T00751098  RH  028%=      5-min Rain = 0
KMC4 240435Z 29009KT 08/M10 A3022 RMK A01 T00751098  RH  028%=      5-min Rain = 0
KMC4 240436Z 29009KT 08/M10 A3022 RMK A01 T00751097  RH  028%=      5-min Rain = 0
KMC4 240437Z 29009KT 08/M10 A3022 RMK A01 T00751097  RH  028%=      5-min Rain = 0
KMC4 240438Z 29008KT 08/M10 A3022 RMK A01 T00751098  RH  028%=      5-min Rain = 0
KMC4 240439Z 29008KT 08/M10 A3022 RMK A01 T00761098  RH  028%=      5-min Rain = 0
KMC4 240440Z 29008KT 08/M10 A3022 RMK A01 T00761098  RH  028%=      5-min Rain = 0
KMC4 240441Z 29007KT 08/M10 A3022 RMK A01 T00751098  RH  028%=      5-min Rain = 0
KMC4 240442Z 29007KT 07/M10 A3022 RMK A01 T00741098  RH  028%=      5-min Rain = 0
KMC4 240443Z 29006KT 07/M10 A3022 RMK A01 T00731098  RH  028%=      5-min Rain = 0
KMC4 240444Z 29006KT 07/M10 A3022 RMK A01 T00721099  RH  029%=      5-min Rain = 0
KMC4 240445Z 29006KT 07/M10 A3022 RMK A01 T00721098  RH  029%=      5-min Rain = 0
KMC4 240446Z 29006KT 07/M10 A3022 RMK A01 T00701098  RH  029%=      5-min Rain = 0
KMC4 240447Z 29006KT 07/M10 A3023 RMK A01 T00701097  RH  029%=      5-min Rain = 0
KMC4 240448Z 29005KT 07/M10 A3023 RMK A01 T00691098  RH  029%=      5-min Rain = 0
KMC4 240449Z 29005KT 07/M10 A3023 RMK A01 T00681098  RH  029%=      5-min Rain = 0
KMC4 240450Z 30005KT 07/M10 A3023 RMK A01 T00681098  RH  030%=      5-min Rain = 0
KMC4 240451Z 30005KT 07/M10 A3023 RMK A01 T00671097  RH  030%=      5-min Rain = 0
KMC4 240452Z 30005KT 07/M10 A3023 RMK A01 T00671097  RH  030%=      5-min Rain = 0
KMC4 240453Z 31005KT 07/M10 A3023 RMK A01 T00661097  RH  030%=      5-min Rain = 0
KMC4 240454Z 31005KT 07/M10 A3023 RMK A01 T00661097  RH  030%=      5-min Rain = 0
KMC4 240455Z 30005KT 07/M10 A3023 RMK A01 T00651097  RH  030%=      5-min Rain = 0
KMC4 240456Z 31004KT 07/M10 A3023 RMK A01 T00651095  RH  031%=      5-min Rain = 0
KMC4 240457Z 31005KT 06/M10 A3023 RMK A01 T00641095  RH  031%=      5-min Rain = 0
KMC4 240458Z 31005KT 06/M10 A3023 RMK A01 T00621095  RH  032%=      5-min Rain = 0
KMC4 240459Z 31005KT 06/M09 A3023 RMK A01 T00611094  RH  032%=      5-min Rain = 0
KMC4 240500Z 30005KT 06/M09 A3023 RMK A01 T00591094  RH  032%=      5-min Rain = 0
KMC4 240501Z 30006KT 06/M09 A3023 RMK A01 T00581094  RH  033%=      5-min Rain = 0
KMC4 240502Z 30006KT 06/M09 A3023 RMK A01 T00581094  RH  033%=      5-min Rain = 0
KMC4 240503Z 30006KT 06/M09 A3023 RMK A01 T00591093  RH  032%=      5-min Rain = 0
KMC4 240504Z 29006KT 06/M09 A3023 RMK A01 T00611094  RH  032%=      5-min Rain = 0
KMC4 240505Z 29006KT 06/M10 A3023 RMK A01 T00621095  RH  032%=      5-min Rain = 0
KMC4 240506Z 29006KT 06/M10 A3023 RMK A01 T00621095  RH  031%=      5-min Rain = 0
KMC4 240507Z 29006KT 06/M10 A3023 RMK A01 T00611096  RH  032%=      5-min Rain = 0
KMC4 240508Z 29005KT 06/M10 A3023 RMK A01 T00601096  RH  032%=      5-min Rain = 0
KMC4 240509Z 29006KT 06/M10 A3023 RMK A01 T00601095  RH  032%=      5-min Rain = 0
KMC4 240510Z 29005KT 06/M09 A3023 RMK A01 T00591094  RH  032%=      5-min Rain = 0
KMC4 240511Z 30005KT 06/M09 A3023 RMK A01 T00571094  RH  033%=      5-min Rain = 0
KMC4 240512Z 30005KT 06/M10 A3023 RMK A01 T00571095  RH  033%=      5-min Rain = 0
KMC4 240513Z 31005KT 06/M10 A3023 RMK A01 T00571095  RH  033%=      5-min Rain = 0
KMC4 240514Z 30005KT 06/M10 A3023 RMK A01 T00581095  RH  032%=      5-min Rain = 0
KMC4 240515Z 30005KT 06/M10 A3023 RMK A01 T00591095  RH  032%=      5-min Rain = 0
KMC4 240516Z 30005KT 06/M10 A3023 RMK A01 T00591095  RH  032%=      5-min Rain = 0
KMC4 240517Z 30005KT 06/M10 A3023 RMK A01 T00591095  RH  032%=      5-min Rain = 0
KMC4 240518Z 31005KT 06/M10 A3023 RMK A01 T00591095  RH  032%=      5-min Rain = 0
KMC4 240519Z 31005KT 06/M09 A3023 RMK A01 T00601094  RH  032%=      5-min Rain = 0
KMC4 240520Z 31004KT 06/M10 A3023 RMK A01 T00601095  RH  032%=      5-min Rain = 0
KMC4 240521Z 30004KT 06/M09 A3023 RMK A01 T00601094  RH  032%=      5-min Rain = 0
KMC4 240522Z 31004KT 06/M09 A3023 RMK A01 T00601094  RH  032%=      5-min Rain = 0
KMC4 240523Z 31004KT 06/M10 A3023 RMK A01 T00621095  RH  032%=      5-min Rain = 0
KMC4 240524Z 31004KT 06/M09 A3023 RMK A01 T00641094  RH  031%=      5-min Rain = 0
KMC4 240525Z 30004KT 06/M09 A3023 RMK A01 T00601093  RH  032%=      5-min Rain = 0
KMC4 240526Z 30005KT 06/M10 A3023 RMK A01 T00561097  RH  032%=      5-min Rain = 0
KMC4 240527Z 31004KT 05/M10 A3023 RMK A01 T00531095  RH  033%=      5-min Rain = 0
KMC4 240528Z 31005KT 05/M10 A3023 RMK A01 T00511095  RH  034%=      5-min Rain = 0
KMC4 240529Z 31005KT 05/M09 A3023 RMK A01 T00491094  RH  035%=      5-min Rain = 0
KMC4 240530Z 30005KT 05/M09 A3023 RMK A01 T00471093  RH  036%=      5-min Rain = 0
KMC4 240531Z 30006KT 05/M09 A3023 RMK A01 T00461094  RH  036%=      5-min Rain = 0
KMC4 240532Z 30006KT 05/M10 A3023 RMK A01 T00461095  RH  035%=      5-min Rain = 0
KMC4 240533Z 30006KT 05/M10 A3023 RMK A01 T00481095  RH  035%=      5-min Rain = 0
KMC4 240534Z 30006KT 05/M10 A3023 RMK A01 T00481095  RH  035%=      5-min Rain = 0
KMC4 240535Z 29006KT 05/M10 A3024 RMK A01 T00481095  RH  035%=      5-min Rain = 0
KMC4 240536Z 29006KT 05/M10 A3023 RMK A01 T00481096  RH  034%=      5-min Rain = 0
KMC4 240537Z 29006KT 05/M10 A3023 RMK A01 T00481096  RH  034%=      5-min Rain = 0
KMC4 240538Z 29006KT 05/M10 A3024 RMK A01 T00481095  RH  035%=      5-min Rain = 0
KMC4 240539Z 29006KT 05/M10 A3024 RMK A01 T00471095  RH  035%=      5-min Rain = 0
KMC4 240540Z 29006KT 05/M10 A3024 RMK A01 T00471096  RH  035%=      5-min Rain = 0
KMC4 240541Z 29007KT 05/M10 A3024 RMK A01 T00471096  RH  035%=      5-min Rain = 0
KMC4 240542Z 29006KT 05/M10 A3024 RMK A01 T00471096  RH  034%=      5-min Rain = 0
KMC4 240543Z 30006KT 05/M10 A3024 RMK A01 T00471097  RH  034%=      5-min Rain = 0
KMC4 240544Z 29006KT 05/M10 A3024 RMK A01 T00471097  RH  034%=      5-min Rain = 0
KMC4 240545Z 30007KT 05/M10 A3024 RMK A01 T00471097  RH  034%=      5-min Rain = 0
KMC4 240546Z 30007KT 05/M10 A3024 RMK A01 T00461098  RH  035%=      5-min Rain = 0
KMC4 240547Z 30007KT 05/M10 A3024 RMK A01 T00451097  RH  035%=      5-min Rain = 0
KMC4 240548Z 30007KT 04/M10 A3024 RMK A01 T00441097  RH  035%=      5-min Rain = 0
KMC4 240549Z 30007KT 04/M10 A3024 RMK A01 T00441097  RH  035%=      5-min Rain = 0
KMC4 240550Z 30007KT 04/M10 A3024 RMK A01 T00441096  RH  035%=      5-min Rain = 0
KMC4 240551Z 30008KT 04/M10 A3024 RMK A01 T00441096  RH  035%=      5-min Rain = 0
KMC4 240552Z 30008KT 04/M10 A3024 RMK A01 T00441095  RH  036%=      5-min Rain = 0
KMC4 240553Z 30008KT 05/M09 A3024 RMK A01 T00451094  RH  036%=      5-min Rain = 0
KMC4 240554Z 30008KT 05/M09 A3024 RMK A01 T00471094  RH  035%=      5-min Rain = 0
KMC4 240555Z 30008KT 05/M09 A3024 RMK A01 T00491094  RH  035%=      5-min Rain = 0
KMC4 240556Z 30008KT 05/M10 A3024 RMK A01 T00501095  RH  034%=      5-min Rain = 0
KMC4 240557Z 30007KT 05/M10 A3024 RMK A01 T00501095  RH  034%=      5-min Rain = 0
KMC4 240558Z 30007KT 05/M10 A3024 RMK A01 T00511095  RH  034%=      5-min Rain = 0
KMC4 240559Z 30006KT 05/M10 A3024 RMK A01 T00511095  RH  034%=      5-min Rain = 0

Page generated in 0.033 seconds.